Cuivre River (Missouri), Troy (05514500)

StateMissouriLatestHigh (1650 cfs)
RiverCuivre RiverRatingObservedEstimated
Updated2026-05-06 2:30 (37 minutes ago)Flood - The river is flooding. Obstacles can be treacherous or deadly. The river should be avoided at this stage for casual trips and definitely for the inexperienced. Trips should be attempted only with protective gear and equipment.Flood(none)2680
Discharge1650 cfs (median: 245 cfs)High - The river is high and potentially dangerous, especially for the young and / or inexperienced. Normal stream obstacles are sometimes difficult to navigate. Extended distances can be attempted, but canoe travel may not be advisable.High(none)718
Height8.81 feetGood - Conditions are ideal for a canoe or kayak. Boats typically will drag on fewer than one-quarter of riffles, if at all, and portages are unnecessary or rare. Normal float lengths can be attempted without a problem.Good(none)216
TrendRising (rising over 24 hours)Low - River is low but can still be floated. Some riffles are okay but most come with significant dragging and might need a portage. Float lengths should be reduced to accommodate low flow, dragging, and portages.Low(none)132
USGSExternal icon USGS Site (External icon Duck Duck Go Maps)Poor - River is too low to float comfortably. Most or all riffles will drag or must be portaged and some obstacles (such as slick shelf rock) cause undue problems. Avoid the river at this stage for casual paddling trips.Poor(none)34

Trending Data

Plot Image

Trips for Cuivre River (Missouri), Troy (05514500)

DateStartEndDistanceConditionDischargeHeightFishingDetails

A total of 0 rows are displayed.

Condition Descriptions

Fishing Conditions

Fish Species

Notes

Classic Trip List

The classic River Trips application is still available for use. It is updated with the new system using a data retrofit. It is no longer maintained. The original River Trips application is no longer updated (as of 1 Dec 2016) but can be checked for errors or for the condition of the data before it was converted to the new system.

Gauge Data Table

ObservationHeightDischargeMaximum
Discharge
Minimum
Discharge
Mean
Discharge
P05P10P20P25P50
(Median)
P75P80P90P95
2026-05-06 02:30 8.81 1650 16600 (2022) 13 (2000) 1110 42 57 77 94 245 746 1180 2790 4870
2026-05-06 02:00 8.70 1550 16600 (2022) 13 (2000) 1110 42 57 77 94 245 746 1180 2790 4870
2026-05-06 01:30 8.56 1430 16600 (2022) 13 (2000) 1110 42 57 77 94 245 746 1180 2790 4870
2026-05-06 01:00 8.38 1290 16600 (2022) 13 (2000) 1110 42 57 77 94 245 746 1180 2790 4870
2026-05-06 00:30 8.21 1160 16600 (2022) 13 (2000) 1110 42 57 77 94 245 746 1180 2790 4870
2026-05-06 00:00 8.01 1020 16600 (2022) 13 (2000) 1110 42 57 77 94 245 746 1180 2790 4870
2026-05-05 23:30 7.83 900 16600 (2022) 13 (2000) 1110 42 57 77 94 245 746 1180 2790 4870
2026-05-05 23:00 7.68 809 16600 (2022) 13 (2000) 1110 42 57 77 94 245 746 1180 2790 4870
2026-05-05 22:30 7.55 734 12800 (2022) 14 (2000) 1100 41 58 84 99 230 908 1230 3680 5820
2026-05-05 22:00 7.42 664 12800 (2022) 14 (2000) 1100 41 58 84 99 230 908 1230 3680 5820
2026-05-05 21:30 7.30 602 12800 (2022) 14 (2000) 1100 41 58 84 99 230 908 1230 3680 5820
2026-05-05 21:00 7.17 540 12800 (2022) 14 (2000) 1100 41 58 84 99 230 908 1230 3680 5820
2026-05-05 20:30 7.07 494 12800 (2022) 14 (2000) 1100 41 58 84 99 230 908 1230 3680 5820
2026-05-05 20:00 7.04 481 12800 (2022) 14 (2000) 1100 41 58 84 99 230 908 1230 3680 5820
2026-05-05 19:30 7.00 464 12800 (2022) 14 (2000) 1100 41 58 84 99 230 908 1230 3680 5820
2026-05-05 19:00 6.96 447 12800 (2022) 14 (2000) 1100 41 58 84 99 230 908 1230 3680 5820
2026-05-05 18:30 6.92 431 12800 (2022) 14 (2000) 1100 41 58 84 99 230 908 1230 3680 5820
2026-05-05 18:00 6.90 423 12800 (2022) 14 (2000) 1100 41 58 84 99 230 908 1230 3680 5820
2026-05-05 17:30 6.87 411 12800 (2022) 14 (2000) 1100 41 58 84 99 230 908 1230 3680 5820
2026-05-05 17:00 6.84 399 12800 (2022) 14 (2000) 1100 41 58 84 99 230 908 1230 3680 5820
2026-05-05 16:30 6.82 391 12800 (2022) 14 (2000) 1100 41 58 84 99 230 908 1230 3680 5820
2026-05-05 16:00 6.84 399 12800 (2022) 14 (2000) 1100 41 58 84 99 230 908 1230 3680 5820
2026-05-05 15:30 6.81 387 12800 (2022) 14 (2000) 1100 41 58 84 99 230 908 1230 3680 5820
2026-05-05 15:00 6.83 395 12800 (2022) 14 (2000) 1100 41 58 84 99 230 908 1230 3680 5820
2026-05-05 14:30 6.82 391 12800 (2022) 14 (2000) 1100 41 58 84 99 230 908 1230 3680 5820
2026-05-05 14:00 6.80 384 12800 (2022) 14 (2000) 1100 41 58 84 99 230 908 1230 3680 5820
2026-05-05 13:30 6.80 384 12800 (2022) 14 (2000) 1100 41 58 84 99 230 908 1230 3680 5820
2026-05-05 13:00 6.79 380 12800 (2022) 14 (2000) 1100 41 58 84 99 230 908 1230 3680 5820
2026-05-05 12:30 6.79 380 12800 (2022) 14 (2000) 1100 41 58 84 99 230 908 1230 3680 5820
2026-05-05 12:00 6.79 380 12800 (2022) 14 (2000) 1100 41 58 84 99 230 908 1230 3680 5820
2026-05-05 11:30 6.79 380 12800 (2022) 14 (2000) 1100 41 58 84 99 230 908 1230 3680 5820
2026-05-05 11:00 6.79 380 12800 (2022) 14 (2000) 1100 41 58 84 99 230 908 1230 3680 5820
2026-05-05 10:30 6.78 376 12800 (2022) 14 (2000) 1100 41 58 84 99 230 908 1230 3680 5820
2026-05-05 10:00 6.77 372 12800 (2022) 14 (2000) 1100 41 58 84 99 230 908 1230 3680 5820
2026-05-05 09:30 6.78 376 12800 (2022) 14 (2000) 1100 41 58 84 99 230 908 1230 3680 5820
2026-05-05 09:00 6.75 365 12800 (2022) 14 (2000) 1100 41 58 84 99 230 908 1230 3680 5820
2026-05-05 08:30 6.77 372 12800 (2022) 14 (2000) 1100 41 58 84 99 230 908 1230 3680 5820
2026-05-05 08:00 6.75 365 12800 (2022) 14 (2000) 1100 41 58 84 99 230 908 1230 3680 5820
2026-05-05 07:30 6.70 347 12800 (2022) 14 (2000) 1100 41 58 84 99 230 908 1230 3680 5820
2026-05-05 07:00 6.73 358 12800 (2022) 14 (2000) 1100 41 58 84 99 230 908 1230 3680 5820
2026-05-05 06:30 6.72 354 12800 (2022) 14 (2000) 1100 41 58 84 99 230 908 1230 3680 5820
2026-05-05 06:00 6.73 358 12800 (2022) 14 (2000) 1100 41 58 84 99 230 908 1230 3680 5820
2026-05-05 05:30 6.71 350 12800 (2022) 14 (2000) 1100 41 58 84 99 230 908 1230 3680 5820
2026-05-05 05:00 6.69 343 12800 (2022) 14 (2000) 1100 41 58 84 99 230 908 1230 3680 5820
2026-05-05 04:30 6.69 343 12800 (2022) 14 (2000) 1100 41 58 84 99 230 908 1230 3680 5820
2026-05-05 04:00 6.67 336 12800 (2022) 14 (2000) 1100 41 58 84 99 230 908 1230 3680 5820
2026-05-05 03:30 6.62 319 12800 (2022) 14 (2000) 1100 41 58 84 99 230 908 1230 3680 5820
2026-05-05 03:00 6.62 319 12800 (2022) 14 (2000) 1100 41 58 84 99 230 908 1230 3680 5820
2026-05-05 02:30 6.64 326 12800 (2022) 14 (2000) 1100 41 58 84 99 230 908 1230 3680 5820
2026-05-05 02:00 6.60 312 12800 (2022) 14 (2000) 1100 41 58 84 99 230 908 1230 3680 5820
2026-05-05 01:30 6.61 315 12800 (2022) 14 (2000) 1100 41 58 84 99 230 908 1230 3680 5820
2026-05-05 01:00 6.58 305 12800 (2022) 14 (2000) 1100 41 58 84 99 230 908 1230 3680 5820
2026-05-05 00:30 6.63 322 12800 (2022) 14 (2000) 1100 41 58 84 99 230 908 1230 3680 5820
2026-05-05 00:00 6.62 319 12800 (2022) 14 (2000) 1100 41 58 84 99 230 908 1230 3680 5820
2026-05-04 23:30 6.64 326 12800 (2022) 14 (2000) 1100 41 58 84 99 230 908 1230 3680 5820
2026-05-04 23:00 6.64 326 12800 (2022) 14 (2000) 1100 41 58 84 99 230 908 1230 3680 5820
2026-05-04 22:30 6.64 326 25700 (2013) 15 (2000) 1260 43 61 91 113 255 760 1000 2380 6500
2026-05-04 22:00 6.64 326 25700 (2013) 15 (2000) 1260 43 61 91 113 255 760 1000 2380 6500
2026-05-04 21:30 6.64 326 25700 (2013) 15 (2000) 1260 43 61 91 113 255 760 1000 2380 6500
2026-05-04 21:00 6.65 329 25700 (2013) 15 (2000) 1260 43 61 91 113 255 760 1000 2380 6500
2026-05-04 20:30 6.65 329 25700 (2013) 15 (2000) 1260 43 61 91 113 255 760 1000 2380 6500
2026-05-04 20:00 6.65 329 25700 (2013) 15 (2000) 1260 43 61 91 113 255 760 1000 2380 6500
2026-05-04 19:30 6.65 329 25700 (2013) 15 (2000) 1260 43 61 91 113 255 760 1000 2380 6500
2026-05-04 19:00 6.66 333 25700 (2013) 15 (2000) 1260 43 61 91 113 255 760 1000 2380 6500
2026-05-04 18:30 6.66 333 25700 (2013) 15 (2000) 1260 43 61 91 113 255 760 1000 2380 6500
2026-05-04 18:00 6.65 329 25700 (2013) 15 (2000) 1260 43 61 91 113 255 760 1000 2380 6500
2026-05-04 17:30 6.63 322 25700 (2013) 15 (2000) 1260 43 61 91 113 255 760 1000 2380 6500
2026-05-04 17:00 6.62 319 25700 (2013) 15 (2000) 1260 43 61 91 113 255 760 1000 2380 6500
2026-05-04 16:30 6.64 326 25700 (2013) 15 (2000) 1260 43 61 91 113 255 760 1000 2380 6500
2026-05-04 16:00 6.61 315 25700 (2013) 15 (2000) 1260 43 61 91 113 255 760 1000 2380 6500
2026-05-04 15:30 6.65 329 25700 (2013) 15 (2000) 1260 43 61 91 113 255 760 1000 2380 6500
2026-05-04 15:00 6.68 340 25700 (2013) 15 (2000) 1260 43 61 91 113 255 760 1000 2380 6500
2026-05-04 14:30 6.69 343 25700 (2013) 15 (2000) 1260 43 61 91 113 255 760 1000 2380 6500
2026-05-04 14:00 6.69 343 25700 (2013) 15 (2000) 1260 43 61 91 113 255 760 1000 2380 6500
2026-05-04 13:30 6.69 343 25700 (2013) 15 (2000) 1260 43 61 91 113 255 760 1000 2380 6500
2026-05-04 13:00 6.69 343 25700 (2013) 15 (2000) 1260 43 61 91 113 255 760 1000 2380 6500
2026-05-04 12:30 6.70 347 25700 (2013) 15 (2000) 1260 43 61 91 113 255 760 1000 2380 6500
2026-05-04 12:00 6.69 343 25700 (2013) 15 (2000) 1260 43 61 91 113 255 760 1000 2380 6500
2026-05-04 11:30 6.70 347 25700 (2013) 15 (2000) 1260 43 61 91 113 255 760 1000 2380 6500
2026-05-04 11:00 6.71 350 25700 (2013) 15 (2000) 1260 43 61 91 113 255 760 1000 2380 6500
2026-05-04 10:30 6.71 350 25700 (2013) 15 (2000) 1260 43 61 91 113 255 760 1000 2380 6500
2026-05-04 10:00 6.72 354 25700 (2013) 15 (2000) 1260 43 61 91 113 255 760 1000 2380 6500
2026-05-04 09:30 6.71 350 25700 (2013) 15 (2000) 1260 43 61 91 113 255 760 1000 2380 6500
2026-05-04 09:00 6.72 354 25700 (2013) 15 (2000) 1260 43 61 91 113 255 760 1000 2380 6500
2026-05-04 08:30 6.72 354 25700 (2013) 15 (2000) 1260 43 61 91 113 255 760 1000 2380 6500
2026-05-04 08:00 6.72 354 25700 (2013) 15 (2000) 1260 43 61 91 113 255 760 1000 2380 6500
2026-05-04 07:30 6.73 358 25700 (2013) 15 (2000) 1260 43 61 91 113 255 760 1000 2380 6500
2026-05-04 07:00 6.73 358 25700 (2013) 15 (2000) 1260 43 61 91 113 255 760 1000 2380 6500
2026-05-04 06:30 6.73 358 25700 (2013) 15 (2000) 1260 43 61 91 113 255 760 1000 2380 6500
2026-05-04 06:00 6.74 361 25700 (2013) 15 (2000) 1260 43 61 91 113 255 760 1000 2380 6500
2026-05-04 05:30 6.74 361 25700 (2013) 15 (2000) 1260 43 61 91 113 255 760 1000 2380 6500
2026-05-04 05:00 6.75 365 25700 (2013) 15 (2000) 1260 43 61 91 113 255 760 1000 2380 6500
2026-05-04 04:30 6.75 365 25700 (2013) 15 (2000) 1260 43 61 91 113 255 760 1000 2380 6500
2026-05-04 04:00 6.75 365 25700 (2013) 15 (2000) 1260 43 61 91 113 255 760 1000 2380 6500
2026-05-04 03:30 6.75 365 25700 (2013) 15 (2000) 1260 43 61 91 113 255 760 1000 2380 6500
2026-05-04 03:00 6.75 365 25700 (2013) 15 (2000) 1260 43 61 91 113 255 760 1000 2380 6500
2026-05-04 02:30 6.76 369 25700 (2013) 15 (2000) 1260 43 61 91 113 255 760 1000 2380 6500
2026-05-04 02:00 6.76 369 25700 (2013) 15 (2000) 1260 43 61 91 113 255 760 1000 2380 6500
2026-05-04 01:30 6.76 369 25700 (2013) 15 (2000) 1260 43 61 91 113 255 760 1000 2380 6500
2026-05-04 01:00 6.77 372 25700 (2013) 15 (2000) 1260 43 61 91 113 255 760 1000 2380 6500
2026-05-04 00:30 6.77 372 25700 (2013) 15 (2000) 1260 43 61 91 113 255 760 1000 2380 6500
2026-05-04 00:00 6.77 372 25700 (2013) 15 (2000) 1260 43 61 91 113 255 760 1000 2380 6500
2026-05-03 23:30 6.78 376 25700 (2013) 15 (2000) 1260 43 61 91 113 255 760 1000 2380 6500
2026-05-03 23:00 6.78 376 25700 (2013) 15 (2000) 1260 43 61 91 113 255 760 1000 2380 6500
2026-05-03 22:30 6.78 376 13000 (1935) 15 (2000) 1170 41 63 102 121 291 775 1120 3020 7340
2026-05-03 22:00 6.78 376 13000 (1935) 15 (2000) 1170 41 63 102 121 291 775 1120 3020 7340
2026-05-03 21:30 6.79 380 13000 (1935) 15 (2000) 1170 41 63 102 121 291 775 1120 3020 7340
2026-05-03 21:00 6.79 380 13000 (1935) 15 (2000) 1170 41 63 102 121 291 775 1120 3020 7340
2026-05-03 20:30 6.80 384 13000 (1935) 15 (2000) 1170 41 63 102 121 291 775 1120 3020 7340
2026-05-03 20:00 6.79 380 13000 (1935) 15 (2000) 1170 41 63 102 121 291 775 1120 3020 7340
2026-05-03 19:30 6.80 384 13000 (1935) 15 (2000) 1170 41 63 102 121 291 775 1120 3020 7340
2026-05-03 19:00 6.80 384 13000 (1935) 15 (2000) 1170 41 63 102 121 291 775 1120 3020 7340
2026-05-03 18:30 6.81 387 13000 (1935) 15 (2000) 1170 41 63 102 121 291 775 1120 3020 7340
2026-05-03 18:00 6.81 387 13000 (1935) 15 (2000) 1170 41 63 102 121 291 775 1120 3020 7340
2026-05-03 17:30 6.81 387 13000 (1935) 15 (2000) 1170 41 63 102 121 291 775 1120 3020 7340
2026-05-03 17:00 6.76 369 13000 (1935) 15 (2000) 1170 41 63 102 121 291 775 1120 3020 7340
2026-05-03 16:30 6.78 376 13000 (1935) 15 (2000) 1170 41 63 102 121 291 775 1120 3020 7340
2026-05-03 16:00 6.83 395 13000 (1935) 15 (2000) 1170 41 63 102 121 291 775 1120 3020 7340
2026-05-03 15:30 6.81 387 13000 (1935) 15 (2000) 1170 41 63 102 121 291 775 1120 3020 7340
2026-05-03 15:00 6.81 387 13000 (1935) 15 (2000) 1170 41 63 102 121 291 775 1120 3020 7340
2026-05-03 14:30 6.83 395 13000 (1935) 15 (2000) 1170 41 63 102 121 291 775 1120 3020 7340
2026-05-03 14:00 6.83 395 13000 (1935) 15 (2000) 1170 41 63 102 121 291 775 1120 3020 7340
2026-05-03 13:30 6.85 403 13000 (1935) 15 (2000) 1170 41 63 102 121 291 775 1120 3020 7340
2026-05-03 13:00 6.82 391 13000 (1935) 15 (2000) 1170 41 63 102 121 291 775 1120 3020 7340
2026-05-03 12:30 6.86 407 13000 (1935) 15 (2000) 1170 41 63 102 121 291 775 1120 3020 7340
2026-05-03 12:00 6.86 407 13000 (1935) 15 (2000) 1170 41 63 102 121 291 775 1120 3020 7340
2026-05-03 11:30 6.87 411 13000 (1935) 15 (2000) 1170 41 63 102 121 291 775 1120 3020 7340
2026-05-03 11:00 6.87 411 13000 (1935) 15 (2000) 1170 41 63 102 121 291 775 1120 3020 7340
2026-05-03 10:30 6.86 407 13000 (1935) 15 (2000) 1170 41 63 102 121 291 775 1120 3020 7340
2026-05-03 10:00 6.88 415 13000 (1935) 15 (2000) 1170 41 63 102 121 291 775 1120 3020 7340
2026-05-03 09:30 6.89 419 13000 (1935) 15 (2000) 1170 41 63 102 121 291 775 1120 3020 7340
2026-05-03 09:00 6.89 419 13000 (1935) 15 (2000) 1170 41 63 102 121 291 775 1120 3020 7340
2026-05-03 08:30 6.90 423 13000 (1935) 15 (2000) 1170 41 63 102 121 291 775 1120 3020 7340
2026-05-03 08:00 6.90 423 13000 (1935) 15 (2000) 1170 41 63 102 121 291 775 1120 3020 7340
2026-05-03 07:30 6.91 427 13000 (1935) 15 (2000) 1170 41 63 102 121 291 775 1120 3020 7340
2026-05-03 07:00 6.92 431 13000 (1935) 15 (2000) 1170 41 63 102 121 291 775 1120 3020 7340
2026-05-03 06:30 6.92 431 13000 (1935) 15 (2000) 1170 41 63 102 121 291 775 1120 3020 7340
2026-05-03 06:00 6.93 435 13000 (1935) 15 (2000) 1170 41 63 102 121 291 775 1120 3020 7340
2026-05-03 05:30 6.94 439 13000 (1935) 15 (2000) 1170 41 63 102 121 291 775 1120 3020 7340
2026-05-03 05:00 6.94 439 13000 (1935) 15 (2000) 1170 41 63 102 121 291 775 1120 3020 7340
2026-05-03 04:30 6.95 443 13000 (1935) 15 (2000) 1170 41 63 102 121 291 775 1120 3020 7340
2026-05-03 04:00 6.95 443 13000 (1935) 15 (2000) 1170 41 63 102 121 291 775 1120 3020 7340
2026-05-03 03:30 6.95 443 13000 (1935) 15 (2000) 1170 41 63 102 121 291 775 1120 3020 7340
2026-05-03 03:00 6.96 447 13000 (1935) 15 (2000) 1170 41 63 102 121 291 775 1120 3020 7340
2026-05-03 02:30 6.96 447 13000 (1935) 15 (2000) 1170 41 63 102 121 291 775 1120 3020 7340
2026-05-03 02:00 6.97 451 13000 (1935) 15 (2000) 1170 41 63 102 121 291 775 1120 3020 7340
2026-05-03 01:30 6.97 451 13000 (1935) 15 (2000) 1170 41 63 102 121 291 775 1120 3020 7340
2026-05-03 01:00 6.97 451 13000 (1935) 15 (2000) 1170 41 63 102 121 291 775 1120 3020 7340
2026-05-03 00:30 6.98 456 13000 (1935) 15 (2000) 1170 41 63 102 121 291 775 1120 3020 7340
2026-05-03 00:00 6.98 456 13000 (1935) 15 (2000) 1170 41 63 102 121 291 775 1120 3020 7340
2026-05-02 23:30 6.99 460 13000 (1935) 15 (2000) 1170 41 63 102 121 291 775 1120 3020 7340
2026-05-02 23:00 6.99 460 13000 (1935) 15 (2000) 1170 41 63 102 121 291 775 1120 3020 7340
2026-05-02 22:30 7.00 464 41300 (1983) 17 (2000) 1660 44 66 112 125 290 905 1130 4380 10100
2026-05-02 22:00 7.00 464 41300 (1983) 17 (2000) 1660 44 66 112 125 290 905 1130 4380 10100
2026-05-02 21:30 7.00 464 41300 (1983) 17 (2000) 1660 44 66 112 125 290 905 1130 4380 10100
2026-05-02 21:00 7.00 464 41300 (1983) 17 (2000) 1660 44 66 112 125 290 905 1130 4380 10100
2026-05-02 20:30 7.01 468 41300 (1983) 17 (2000) 1660 44 66 112 125 290 905 1130 4380 10100
2026-05-02 20:00 7.02 473 41300 (1983) 17 (2000) 1660 44 66 112 125 290 905 1130 4380 10100
2026-05-02 19:30 7.02 473 41300 (1983) 17 (2000) 1660 44 66 112 125 290 905 1130 4380 10100
2026-05-02 19:00 7.03 477 41300 (1983) 17 (2000) 1660 44 66 112 125 290 905 1130 4380 10100
2026-05-02 18:30 7.04 481 41300 (1983) 17 (2000) 1660 44 66 112 125 290 905 1130 4380 10100
2026-05-02 18:00 7.04 481 41300 (1983) 17 (2000) 1660 44 66 112 125 290 905 1130 4380 10100
2026-05-02 17:30 7.05 486 41300 (1983) 17 (2000) 1660 44 66 112 125 290 905 1130 4380 10100
2026-05-02 17:00 7.05 486 41300 (1983) 17 (2000) 1660 44 66 112 125 290 905 1130 4380 10100
2026-05-02 16:30 7.06 490 41300 (1983) 17 (2000) 1660 44 66 112 125 290 905 1130 4380 10100
2026-05-02 16:00 7.07 494 41300 (1983) 17 (2000) 1660 44 66 112 125 290 905 1130 4380 10100
2026-05-02 15:30 7.07 494 41300 (1983) 17 (2000) 1660 44 66 112 125 290 905 1130 4380 10100
2026-05-02 15:00 7.07 494 41300 (1983) 17 (2000) 1660 44 66 112 125 290 905 1130 4380 10100
2026-05-02 14:30 7.08 499 41300 (1983) 17 (2000) 1660 44 66 112 125 290 905 1130 4380 10100
2026-05-02 14:00 7.09 503 41300 (1983) 17 (2000) 1660 44 66 112 125 290 905 1130 4380 10100
2026-05-02 13:30 7.10 508 41300 (1983) 17 (2000) 1660 44 66 112 125 290 905 1130 4380 10100
2026-05-02 13:00 7.11 512 41300 (1983) 17 (2000) 1660 44 66 112 125 290 905 1130 4380 10100
2026-05-02 12:30 7.11 512 41300 (1983) 17 (2000) 1660 44 66 112 125 290 905 1130 4380 10100
2026-05-02 12:00 7.12 517 41300 (1983) 17 (2000) 1660 44 66 112 125 290 905 1130 4380 10100
2026-05-02 11:30 7.12 517 41300 (1983) 17 (2000) 1660 44 66 112 125 290 905 1130 4380 10100
2026-05-02 11:00 7.13 521 41300 (1983) 17 (2000) 1660 44 66 112 125 290 905 1130 4380 10100
2026-05-02 10:30 7.13 521 41300 (1983) 17 (2000) 1660 44 66 112 125 290 905 1130 4380 10100
2026-05-02 10:00 7.14 526 41300 (1983) 17 (2000) 1660 44 66 112 125 290 905 1130 4380 10100
2026-05-02 09:30 7.14 526 41300 (1983) 17 (2000) 1660 44 66 112 125 290 905 1130 4380 10100
2026-05-02 09:00 7.15 531 41300 (1983) 17 (2000) 1660 44 66 112 125 290 905 1130 4380 10100
2026-05-02 08:30 7.16 535 41300 (1983) 17 (2000) 1660 44 66 112 125 290 905 1130 4380 10100
2026-05-02 08:00 7.17 540 41300 (1983) 17 (2000) 1660 44 66 112 125 290 905 1130 4380 10100
2026-05-02 07:30 7.17 540 41300 (1983) 17 (2000) 1660 44 66 112 125 290 905 1130 4380 10100
2026-05-02 07:00 7.18 544 41300 (1983) 17 (2000) 1660 44 66 112 125 290 905 1130 4380 10100
2026-05-02 06:30 7.19 549 41300 (1983) 17 (2000) 1660 44 66 112 125 290 905 1130 4380 10100
2026-05-02 06:00 7.20 554 41300 (1983) 17 (2000) 1660 44 66 112 125 290 905 1130 4380 10100
2026-05-02 05:30 7.20 554 41300 (1983) 17 (2000) 1660 44 66 112 125 290 905 1130 4380 10100
2026-05-02 05:00 7.21 559 41300 (1983) 17 (2000) 1660 44 66 112 125 290 905 1130 4380 10100
2026-05-02 04:30 7.22 563 41300 (1983) 17 (2000) 1660 44 66 112 125 290 905 1130 4380 10100
2026-05-02 04:00 7.23 568 41300 (1983) 17 (2000) 1660 44 66 112 125 290 905 1130 4380 10100
2026-05-02 03:30 7.23 568 41300 (1983) 17 (2000) 1660 44 66 112 125 290 905 1130 4380 10100
2026-05-02 03:00 7.24 573 41300 (1983) 17 (2000) 1660 44 66 112 125 290 905 1130 4380 10100
2026-05-02 02:30 7.24 573 41300 (1983) 17 (2000) 1660 44 66 112 125 290 905 1130 4380 10100
2026-05-02 02:00 7.25 578 41300 (1983) 17 (2000) 1660 44 66 112 125 290 905 1130 4380 10100
2026-05-02 01:30 7.26 583 41300 (1983) 17 (2000) 1660 44 66 112 125 290 905 1130 4380 10100
2026-05-02 01:00 7.27 588 41300 (1983) 17 (2000) 1660 44 66 112 125 290 905 1130 4380 10100
2026-05-02 00:30 7.28 592 41300 (1983) 17 (2000) 1660 44 66 112 125 290 905 1130 4380 10100
2026-05-02 00:00 7.28 592 41300 (1983) 17 (2000) 1660 44 66 112 125 290 905 1130 4380 10100
2026-05-01 23:30 7.29 597 41300 (1983) 17 (2000) 1660 44 66 112 125 290 905 1130 4380 10100
2026-05-01 23:00 7.30 602 41300 (1983) 17 (2000) 1660 44 66 112 125 290 905 1130 4380 10100
2026-05-01 22:30 7.30 602 30300 (2019) 19 (2000) 1800 49 64 113 129 265 1060 1650 2660 9740
2026-05-01 22:00 7.31 607 30300 (2019) 19 (2000) 1800 49 64 113 129 265 1060 1650 2660 9740
2026-05-01 21:30 7.32 612 30300 (2019) 19 (2000) 1800 49 64 113 129 265 1060 1650 2660 9740
2026-05-01 21:00 7.33 617 30300 (2019) 19 (2000) 1800 49 64 113 129 265 1060 1650 2660 9740
2026-05-01 20:30 7.33 617 30300 (2019) 19 (2000) 1800 49 64 113 129 265 1060 1650 2660 9740
2026-05-01 20:00 7.34 622 30300 (2019) 19 (2000) 1800 49 64 113 129 265 1060 1650 2660 9740
2026-05-01 19:30 7.35 627 30300 (2019) 19 (2000) 1800 49 64 113 129 265 1060 1650 2660 9740
2026-05-01 19:00 7.36 633 30300 (2019) 19 (2000) 1800 49 64 113 129 265 1060 1650 2660 9740
2026-05-01 18:30 7.36 633 30300 (2019) 19 (2000) 1800 49 64 113 129 265 1060 1650 2660 9740
2026-05-01 18:00 7.38 643 30300 (2019) 19 (2000) 1800 49 64 113 129 265 1060 1650 2660 9740
2026-05-01 17:30 7.39 648 30300 (2019) 19 (2000) 1800 49 64 113 129 265 1060 1650 2660 9740
2026-05-01 17:00 7.39 648 30300 (2019) 19 (2000) 1800 49 64 113 129 265 1060 1650 2660 9740
2026-05-01 16:30 7.39 648 30300 (2019) 19 (2000) 1800 49 64 113 129 265 1060 1650 2660 9740
2026-05-01 16:00 7.41 658 30300 (2019) 19 (2000) 1800 49 64 113 129 265 1060 1650 2660 9740
2026-05-01 15:30 7.42 664 30300 (2019) 19 (2000) 1800 49 64 113 129 265 1060 1650 2660 9740
2026-05-01 15:00 7.44 674 30300 (2019) 19 (2000) 1800 49 64 113 129 265 1060 1650 2660 9740
2026-05-01 14:30 7.41 658 30300 (2019) 19 (2000) 1800 49 64 113 129 265 1060 1650 2660 9740
2026-05-01 14:00 7.45 680 30300 (2019) 19 (2000) 1800 49 64 113 129 265 1060 1650 2660 9740
2026-05-01 13:30 7.47 690 30300 (2019) 19 (2000) 1800 49 64 113 129 265 1060 1650 2660 9740
2026-05-01 13:00 7.47 690 30300 (2019) 19 (2000) 1800 49 64 113 129 265 1060 1650 2660 9740
2026-05-01 12:30 7.48 696 30300 (2019) 19 (2000) 1800 49 64 113 129 265 1060 1650 2660 9740
2026-05-01 12:00 7.50 706 30300 (2019) 19 (2000) 1800 49 64 113 129 265 1060 1650 2660 9740
2026-05-01 11:30 7.50 706 30300 (2019) 19 (2000) 1800 49 64 113 129 265 1060 1650 2660 9740
2026-05-01 11:00 7.52 717 30300 (2019) 19 (2000) 1800 49 64 113 129 265 1060 1650 2660 9740
2026-05-01 10:30 7.52 717 30300 (2019) 19 (2000) 1800 49 64 113 129 265 1060 1650 2660 9740
2026-05-01 10:00 7.54 729 30300 (2019) 19 (2000) 1800 49 64 113 129 265 1060 1650 2660 9740
2026-05-01 09:30 7.54 729 30300 (2019) 19 (2000) 1800 49 64 113 129 265 1060 1650 2660 9740
2026-05-01 09:00 7.56 740 30300 (2019) 19 (2000) 1800 49 64 113 129 265 1060 1650 2660 9740
2026-05-01 08:30 7.57 745 30300 (2019) 19 (2000) 1800 49 64 113 129 265 1060 1650 2660 9740
2026-05-01 08:00 7.58 751 30300 (2019) 19 (2000) 1800 49 64 113 129 265 1060 1650 2660 9740
2026-05-01 07:30 7.59 757 30300 (2019) 19 (2000) 1800 49 64 113 129 265 1060 1650 2660 9740
2026-05-01 07:00 7.60 762 30300 (2019) 19 (2000) 1800 49 64 113 129 265 1060 1650 2660 9740
2026-05-01 06:30 7.62 774 30300 (2019) 19 (2000) 1800 49 64 113 129 265 1060 1650 2660 9740
2026-05-01 06:00 7.63 780 30300 (2019) 19 (2000) 1800 49 64 113 129 265 1060 1650 2660 9740
2026-05-01 05:30 7.64 785 30300 (2019) 19 (2000) 1800 49 64 113 129 265 1060 1650 2660 9740
2026-05-01 05:00 7.65 791 30300 (2019) 19 (2000) 1800 49 64 113 129 265 1060 1650 2660 9740
2026-05-01 04:30 7.66 797 30300 (2019) 19 (2000) 1800 49 64 113 129 265 1060 1650 2660 9740
2026-05-01 04:00 7.68 809 30300 (2019) 19 (2000) 1800 49 64 113 129 265 1060 1650 2660 9740
2026-05-01 03:30 7.69 815 30300 (2019) 19 (2000) 1800 49 64 113 129 265 1060 1650 2660 9740
2026-05-01 03:00 7.70 821 30300 (2019) 19 (2000) 1800 49 64 113 129 265 1060 1650 2660 9740
2026-05-01 02:30 7.71 827 30300 (2019) 19 (2000) 1800 49 64 113 129 265 1060 1650 2660 9740
2026-05-01 02:00 7.72 833 30300 (2019) 19 (2000) 1800 49 64 113 129 265 1060 1650 2660 9740
2026-05-01 01:30 7.74 845 30300 (2019) 19 (2000) 1800 49 64 113 129 265 1060 1650 2660 9740
2026-05-01 01:00 7.74 845 30300 (2019) 19 (2000) 1800 49 64 113 129 265 1060 1650 2660 9740
2026-05-01 00:30 7.76 857 30300 (2019) 19 (2000) 1800 49 64 113 129 265 1060 1650 2660 9740
2026-05-01 00:00 7.77 863 30300 (2019) 19 (2000) 1800 49 64 113 129 265 1060 1650 2660 9740
2026-04-30 23:30 7.78 869 30300 (2019) 19 (2000) 1800 49 64 113 129 265 1060 1650 2660 9740
2026-04-30 23:00 7.80 882 30300 (2019) 19 (2000) 1800 49 64 113 129 265 1060 1650 2660 9740
2026-04-30 22:30 7.82 894 48200 (2017) 20 (2000) 1550 50 61 106 126 267 1000 1560 4360 5920
2026-04-30 22:00 7.83 900 48200 (2017) 20 (2000) 1550 50 61 106 126 267 1000 1560 4360 5920
2026-04-30 21:30 7.85 913 48200 (2017) 20 (2000) 1550 50 61 106 126 267 1000 1560 4360 5920
2026-04-30 21:00 7.86 919 48200 (2017) 20 (2000) 1550 50 61 106 126 267 1000 1560 4360 5920
2026-04-30 20:30 7.88 932 48200 (2017) 20 (2000) 1550 50 61 106 126 267 1000 1560 4360 5920
2026-04-30 20:00 7.89 939 48200 (2017) 20 (2000) 1550 50 61 106 126 267 1000 1560 4360 5920
2026-04-30 19:30 7.91 952 48200 (2017) 20 (2000) 1550 50 61 106 126 267 1000 1560 4360 5920
2026-04-30 19:00 7.93 965 48200 (2017) 20 (2000) 1550 50 61 106 126 267 1000 1560 4360 5920
2026-04-30 18:30 7.95 978 48200 (2017) 20 (2000) 1550 50 61 106 126 267 1000 1560 4360 5920
2026-04-30 18:00 7.97 991 48200 (2017) 20 (2000) 1550 50 61 106 126 267 1000 1560 4360 5920
2026-04-30 17:30 7.98 998 48200 (2017) 20 (2000) 1550 50 61 106 126 267 1000 1560 4360 5920
2026-04-30 17:00 8.01 1020 48200 (2017) 20 (2000) 1550 50 61 106 126 267 1000 1560 4360 5920
2026-04-30 16:30 8.03 1030 48200 (2017) 20 (2000) 1550 50 61 106 126 267 1000 1560 4360 5920
2026-04-30 16:00 8.06 1050 48200 (2017) 20 (2000) 1550 50 61 106 126 267 1000 1560 4360 5920
2026-04-30 15:30 8.07 1060 48200 (2017) 20 (2000) 1550 50 61 106 126 267 1000 1560 4360 5920
2026-04-30 15:00 8.09 1070 48200 (2017) 20 (2000) 1550 50 61 106 126 267 1000 1560 4360 5920
2026-04-30 14:30 8.11 1090 48200 (2017) 20 (2000) 1550 50 61 106 126 267 1000 1560 4360 5920
2026-04-30 14:00 8.14 1110 48200 (2017) 20 (2000) 1550 50 61 106 126 267 1000 1560 4360 5920
2026-04-30 13:30 8.16 1120 48200 (2017) 20 (2000) 1550 50 61 106 126 267 1000 1560 4360 5920
2026-04-30 13:00 8.19 1140 48200 (2017) 20 (2000) 1550 50 61 106 126 267 1000 1560 4360 5920
2026-04-30 12:30 8.21 1160 48200 (2017) 20 (2000) 1550 50 61 106 126 267 1000 1560 4360 5920
2026-04-30 12:00 8.24 1180 48200 (2017) 20 (2000) 1550 50 61 106 126 267 1000 1560 4360 5920
2026-04-30 11:30 8.25 1190 48200 (2017) 20 (2000) 1550 50 61 106 126 267 1000 1560 4360 5920
2026-04-30 11:00 8.29 1220 48200 (2017) 20 (2000) 1550 50 61 106 126 267 1000 1560 4360 5920
2026-04-30 10:30 8.31 1230 48200 (2017) 20 (2000) 1550 50 61 106 126 267 1000 1560 4360 5920
2026-04-30 10:00 8.35 1260 48200 (2017) 20 (2000) 1550 50 61 106 126 267 1000 1560 4360 5920
2026-04-30 09:30 8.37 1280 48200 (2017) 20 (2000) 1550 50 61 106 126 267 1000 1560 4360 5920
2026-04-30 09:00 8.41 1310 48200 (2017) 20 (2000) 1550 50 61 106 126 267 1000 1560 4360 5920
2026-04-30 08:30 8.45 1340 48200 (2017) 20 (2000) 1550 50 61 106 126 267 1000 1560 4360 5920
2026-04-30 08:00 8.49 1370 48200 (2017) 20 (2000) 1550 50 61 106 126 267 1000 1560 4360 5920
2026-04-30 07:30 8.51 1390 48200 (2017) 20 (2000) 1550 50 61 106 126 267 1000 1560 4360 5920
2026-04-30 07:00 8.55 1420 48200 (2017) 20 (2000) 1550 50 61 106 126 267 1000 1560 4360 5920
2026-04-30 06:30 8.59 1460 48200 (2017) 20 (2000) 1550 50 61 106 126 267 1000 1560 4360 5920
2026-04-30 06:00 8.62 1480 48200 (2017) 20 (2000) 1550 50 61 106 126 267 1000 1560 4360 5920
2026-04-30 05:30 8.67 1530 48200 (2017) 20 (2000) 1550 50 61 106 126 267 1000 1560 4360 5920
2026-04-30 05:00 8.71 1560 48200 (2017) 20 (2000) 1550 50 61 106 126 267 1000 1560 4360 5920
2026-04-30 04:30 8.76 1600 48200 (2017) 20 (2000) 1550 50 61 106 126 267 1000 1560 4360 5920
2026-04-30 04:00 8.81 1650 48200 (2017) 20 (2000) 1550 50 61 106 126 267 1000 1560 4360 5920
2026-04-30 03:30 8.84 1680 48200 (2017) 20 (2000) 1550 50 61 106 126 267 1000 1560 4360 5920
2026-04-30 03:00 8.91 1740 48200 (2017) 20 (2000) 1550 50 61 106 126 267 1000 1560 4360 5920
2026-04-30 02:30 8.94 1770 48200 (2017) 20 (2000) 1550 50 61 106 126 267 1000 1560 4360 5920
2026-04-30 02:00 9.00 1820 48200 (2017) 20 (2000) 1550 50 61 106 126 267 1000 1560 4360 5920
2026-04-30 01:30 9.06 1880 48200 (2017) 20 (2000) 1550 50 61 106 126 267 1000 1560 4360 5920
2026-04-30 01:00 9.11 1930 48200 (2017) 20 (2000) 1550 50 61 106 126 267 1000 1560 4360 5920
2026-04-30 00:30 9.17 1990 48200 (2017) 20 (2000) 1550 50 61 106 126 267 1000 1560 4360 5920
2026-04-30 00:00 9.23 2050 48200 (2017) 20 (2000) 1550 50 61 106 126 267 1000 1560 4360 5920
2026-04-29 23:30 9.30 2100 48200 (2017) 20 (2000) 1550 50 61 106 126 267 1000 1560 4360 5920
2026-04-29 23:00 9.35 2130 48200 (2017) 20 (2000) 1550 50 61 106 126 267 1000 1560 4360 5920
2026-04-29 22:30 9.43 2180 21300 (1996) 23 (2000) 1270 52 60 109 138 287 820 1340 4320 6320
2026-04-29 22:00 9.50 2220 21300 (1996) 23 (2000) 1270 52 60 109 138 287 820 1340 4320 6320
2026-04-29 21:30 9.56 2260 21300 (1996) 23 (2000) 1270 52 60 109 138 287 820 1340 4320 6320
2026-04-29 21:00 9.65 2310 21300 (1996) 23 (2000) 1270 52 60 109 138 287 820 1340 4320 6320
2026-04-29 20:30 9.72 2360 21300 (1996) 23 (2000) 1270 52 60 109 138 287 820 1340 4320 6320
2026-04-29 20:00 9.79 2400 21300 (1996) 23 (2000) 1270 52 60 109 138 287 820 1340 4320 6320
2026-04-29 19:30 9.88 2460 21300 (1996) 23 (2000) 1270 52 60 109 138 287 820 1340 4320 6320
2026-04-29 19:00 9.94 2500 21300 (1996) 23 (2000) 1270 52 60 109 138 287 820 1340 4320 6320
2026-04-29 18:30 10.02 2550 21300 (1996) 23 (2000) 1270 52 60 109 138 287 820 1340 4320 6320
2026-04-29 18:00 10.08 2590 21300 (1996) 23 (2000) 1270 52 60 109 138 287 820 1340 4320 6320
2026-04-29 17:30 10.15 2640 21300 (1996) 23 (2000) 1270 52 60 109 138 287 820 1340 4320 6320
2026-04-29 17:00 10.21 2680 21300 (1996) 23 (2000) 1270 52 60 109 138 287 820 1340 4320 6320
2026-04-29 16:30 10.28 2730 21300 (1996) 23 (2000) 1270 52 60 109 138 287 820 1340 4320 6320
2026-04-29 16:00 10.35 2770 21300 (1996) 23 (2000) 1270 52 60 109 138 287 820 1340 4320 6320
2026-04-29 15:30 10.40 2810 21300 (1996) 23 (2000) 1270 52 60 109 138 287 820 1340 4320 6320
2026-04-29 15:00 10.45 2840 21300 (1996) 23 (2000) 1270 52 60 109 138 287 820 1340 4320 6320
2026-04-29 14:30 10.50 2870 21300 (1996) 23 (2000) 1270 52 60 109 138 287 820 1340 4320 6320
2026-04-29 14:00 10.56 2910 21300 (1996) 23 (2000) 1270 52 60 109 138 287 820 1340 4320 6320
2026-04-29 13:30 10.59 2930 21300 (1996) 23 (2000) 1270 52 60 109 138 287 820 1340 4320 6320
2026-04-29 13:00 10.63 2960 21300 (1996) 23 (2000) 1270 52 60 109 138 287 820 1340 4320 6320
2026-04-29 12:30 10.67 2990 21300 (1996) 23 (2000) 1270 52 60 109 138 287 820 1340 4320 6320
2026-04-29 12:00 10.71 3020 21300 (1996) 23 (2000) 1270 52 60 109 138 287 820 1340 4320 6320
2026-04-29 11:30 10.74 3040 21300 (1996) 23 (2000) 1270 52 60 109 138 287 820 1340 4320 6320
2026-04-29 11:00 10.78 3070 21300 (1996) 23 (2000) 1270 52 60 109 138 287 820 1340 4320 6320
2026-04-29 10:30 10.80 3080 21300 (1996) 23 (2000) 1270 52 60 109 138 287 820 1340 4320 6320
2026-04-29 10:00 10.85 3110 21300 (1996) 23 (2000) 1270 52 60 109 138 287 820 1340 4320 6320
2026-04-29 09:30 10.88 3130 21300 (1996) 23 (2000) 1270 52 60 109 138 287 820 1340 4320 6320
2026-04-29 09:00 10.92 3160 21300 (1996) 23 (2000) 1270 52 60 109 138 287 820 1340 4320 6320
2026-04-29 08:30 10.96 3190 21300 (1996) 23 (2000) 1270 52 60 109 138 287 820 1340 4320 6320
2026-04-29 08:00 11.01 3230 21300 (1996) 23 (2000) 1270 52 60 109 138 287 820 1340 4320 6320
2026-04-29 07:30 11.05 3250 21300 (1996) 23 (2000) 1270 52 60 109 138 287 820 1340 4320 6320
2026-04-29 07:00 11.11 3300 21300 (1996) 23 (2000) 1270 52 60 109 138 287 820 1340 4320 6320
2026-04-29 06:30 11.14 3320 21300 (1996) 23 (2000) 1270 52 60 109 138 287 820 1340 4320 6320
2026-04-29 06:00 11.18 3350 21300 (1996) 23 (2000) 1270 52 60 109 138 287 820 1340 4320 6320
2026-04-29 05:30 11.22 3370 21300 (1996) 23 (2000) 1270 52 60 109 138 287 820 1340 4320 6320
2026-04-29 05:00 11.29 3430 21300 (1996) 23 (2000) 1270 52 60 109 138 287 820 1340 4320 6320
2026-04-29 04:30 11.34 3460 21300 (1996) 23 (2000) 1270 52 60 109 138 287 820 1340 4320 6320
2026-04-29 04:00 11.40 3500 21300 (1996) 23 (2000) 1270 52 60 109 138 287 820 1340 4320 6320
2026-04-29 03:30 11.46 3550 21300 (1996) 23 (2000) 1270 52 60 109 138 287 820 1340 4320 6320
2026-04-29 03:00 11.54 3610 21300 (1996) 23 (2000) 1270 52 60 109 138 287 820 1340 4320 6320
2026-04-29 02:30 11.62 3660 21300 (1996) 23 (2000) 1270 52 60 109 138 287 820 1340 4320 6320
2026-04-29 02:00 11.72 3740 21300 (1996) 23 (2000) 1270 52 60 109 138 287 820 1340 4320 6320
2026-04-29 01:30 11.82 3810 21300 (1996) 23 (2000) 1270 52 60 109 138 287 820 1340 4320 6320
2026-04-29 01:00 11.94 3900 21300 (1996) 23 (2000) 1270 52 60 109 138 287 820 1340 4320 6320
2026-04-29 00:30 12.06 3990 21300 (1996) 23 (2000) 1270 52 60 109 138 287 820 1340 4320 6320
2026-04-29 00:00 12.20 4100 21300 (1996) 23 (2000) 1270 52 60 109 138 287 820 1340 4320 6320
2026-04-28 23:30 12.35 4210 21300 (1996) 23 (2000) 1270 52 60 109 138 287 820 1340 4320 6320
2026-04-28 23:00 12.55 4370 21300 (1996) 23 (2000) 1270 52 60 109 138 287 820 1340 4320 6320
2026-04-28 22:30 12.76 4530 16600 (2002) 24 (1963) 911 46 66 94 128 250 564 748 1630 6620
2026-04-28 22:00 12.99 4710 16600 (2002) 24 (1963) 911 46 66 94 128 250 564 748 1630 6620
2026-04-28 21:30 13.27 4930 16600 (2002) 24 (1963) 911 46 66 94 128 250 564 748 1630 6620
2026-04-28 21:00 13.56 5170 16600 (2002) 24 (1963) 911 46 66 94 128 250 564 748 1630 6620
2026-04-28 20:30 13.91 5460 16600 (2002) 24 (1963) 911 46 66 94 128 250 564 748 1630 6620
2026-04-28 20:00 14.29 5780 16600 (2002) 24 (1963) 911 46 66 94 128 250 564 748 1630 6620
2026-04-28 19:30 14.72 6140 16600 (2002) 24 (1963) 911 46 66 94 128 250 564 748 1630 6620
2026-04-28 19:00 15.19 6550 16600 (2002) 24 (1963) 911 46 66 94 128 250 564 748 1630 6620
2026-04-28 18:30 15.69 7000 16600 (2002) 24 (1963) 911 46 66 94 128 250 564 748 1630 6620
2026-04-28 18:00 16.22 7480 16600 (2002) 24 (1963) 911 46 66 94 128 250 564 748 1630 6620
2026-04-28 17:30 16.75 7970 16600 (2002) 24 (1963) 911 46 66 94 128 250 564 748 1630 6620
2026-04-28 17:00 17.30 8490 16600 (2002) 24 (1963) 911 46 66 94 128 250 564 748 1630 6620
2026-04-28 16:30 17.88 9050 16600 (2002) 24 (1963) 911 46 66 94 128 250 564 748 1630 6620
2026-04-28 16:00 18.43 9590 16600 (2002) 24 (1963) 911 46 66 94 128 250 564 748 1630 6620
2026-04-28 15:30 18.99 10200 16600 (2002) 24 (1963) 911 46 66 94 128 250 564 748 1630 6620
2026-04-28 15:00 19.52 10800 16600 (2002) 24 (1963) 911 46 66 94 128 250 564 748 1630 6620
2026-04-28 14:30 20.01 11600 16600 (2002) 24 (1963) 911 46 66 94 128 250 564 748 1630 6620
2026-04-28 14:00 20.45 12300 16600 (2002) 24 (1963) 911 46 66 94 128 250 564 748 1630 6620
2026-04-28 13:30 20.86 12900 16600 (2002) 24 (1963) 911 46 66 94 128 250 564 748 1630 6620
2026-04-28 13:00 21.23 13500 16600 (2002) 24 (1963) 911 46 66 94 128 250 564 748 1630 6620
2026-04-28 12:30 21.53 14000 16600 (2002) 24 (1963) 911 46 66 94 128 250 564 748 1630 6620
2026-04-28 12:00 21.79 14600 16600 (2002) 24 (1963) 911 46 66 94 128 250 564 748 1630 6620
2026-04-28 11:30 22.00 15200 16600 (2002) 24 (1963) 911 46 66 94 128 250 564 748 1630 6620
2026-04-28 11:00 22.16 15700 16600 (2002) 24 (1963) 911 46 66 94 128 250 564 748 1630 6620
2026-04-28 10:30 22.28 16100 16600 (2002) 24 (1963) 911 46 66 94 128 250 564 748 1630 6620
2026-04-28 10:00 22.40 16500 16600 (2002) 24 (1963) 911 46 66 94 128 250 564 748 1630 6620
2026-04-28 09:30 22.48 16800 16600 (2002) 24 (1963) 911 46 66 94 128 250 564 748 1630 6620
2026-04-28 09:00 22.57 17100 16600 (2002) 24 (1963) 911 46 66 94 128 250 564 748 1630 6620
2026-04-28 08:30 22.63 17400 16600 (2002) 24 (1963) 911 46 66 94 128 250 564 748 1630 6620
2026-04-28 08:00 22.66 17500 16600 (2002) 24 (1963) 911 46 66 94 128 250 564 748 1630 6620
2026-04-28 07:30 22.68 17500 16600 (2002) 24 (1963) 911 46 66 94 128 250 564 748 1630 6620
2026-04-28 07:00 22.69 17600 16600 (2002) 24 (1963) 911 46 66 94 128 250 564 748 1630 6620
2026-04-28 06:30 22.69 17600 16600 (2002) 24 (1963) 911 46 66 94 128 250 564 748 1630 6620
2026-04-28 06:00 22.66 17500 16600 (2002) 24 (1963) 911 46 66 94 128 250 564 748 1630 6620
2026-04-28 05:30 22.65 17400 16600 (2002) 24 (1963) 911 46 66 94 128 250 564 748 1630 6620
2026-04-28 05:00 22.61 17300 16600 (2002) 24 (1963) 911 46 66 94 128 250 564 748 1630 6620
2026-04-28 04:30 22.56 17100 16600 (2002) 24 (1963) 911 46 66 94 128 250 564 748 1630 6620
2026-04-28 04:00 22.51 16900 16600 (2002) 24 (1963) 911 46 66 94 128 250 564 748 1630 6620
2026-04-28 03:30 22.43 16600 16600 (2002) 24 (1963) 911 46 66 94 128 250 564 748 1630 6620
2026-04-28 03:00 22.34 16300 16600 (2002) 24 (1963) 911 46 66 94 128 250 564 748 1630 6620
2026-04-28 02:30 22.21 15900 16600 (2002) 24 (1963) 911 46 66 94 128 250 564 748 1630 6620
2026-04-28 02:00 22.03 15300 16600 (2002) 24 (1963) 911 46 66 94 128 250 564 748 1630 6620
2026-04-28 01:30 21.96 15100 16600 (2002) 24 (1963) 911 46 66 94 128 250 564 748 1630 6620
2026-04-28 01:00 21.74 14500 16600 (2002) 24 (1963) 911 46 66 94 128 250 564 748 1630 6620
2026-04-28 00:30 21.56 14100 16600 (2002) 24 (1963) 911 46 66 94 128 250 564 748 1630 6620
2026-04-28 00:00 21.34 13700 16600 (2002) 24 (1963) 911 46 66 94 128 250 564 748 1630 6620
2026-04-27 23:30 21.09 13300 16600 (2002) 24 (1963) 911 46 66 94 128 250 564 748 1630 6620
2026-04-27 23:00 20.78 12800 16600 (2002) 24 (1963) 911 46 66 94 128 250 564 748 1630 6620
2026-04-27 22:30 20.48 12300 4690 (2002) 19 (1963) 567 48 68 99 118 250 560 640 1590 2690
2026-04-27 22:00 20.11 11700 4690 (2002) 19 (1963) 567 48 68 99 118 250 560 640 1590 2690
2026-04-27 21:30 19.70 11100 4690 (2002) 19 (1963) 567 48 68 99 118 250 560 640 1590 2690
2026-04-27 21:00 19.22 10400 4690 (2002) 19 (1963) 567 48 68 99 118 250 560 640 1590 2690
2026-04-27 20:30 18.68 9840 4690 (2002) 19 (1963) 567 48 68 99 118 250 560 640 1590 2690
2026-04-27 20:00 18.10 9270 4690 (2002) 19 (1963) 567 48 68 99 118 250 560 640 1590 2690
2026-04-27 19:30 17.40 8590 4690 (2002) 19 (1963) 567 48 68 99 118 250 560 640 1590 2690
2026-04-27 19:00 16.67 7900 4690 (2002) 19 (1963) 567 48 68 99 118 250 560 640 1590 2690
2026-04-27 18:30 15.88 7170 4690 (2002) 19 (1963) 567 48 68 99 118 250 560 640 1590 2690
2026-04-27 18:00 15.10 6470 4690 (2002) 19 (1963) 567 48 68 99 118 250 560 640 1590 2690
2026-04-27 17:30 14.43 5900 4690 (2002) 19 (1963) 567 48 68 99 118 250 560 640 1590 2690
2026-04-27 17:00 13.96 5500 4690 (2002) 19 (1963) 567 48 68 99 118 250 560 640 1590 2690
2026-04-27 16:30 13.62 5220 4690 (2002) 19 (1963) 567 48 68 99 118 250 560 640 1590 2690
2026-04-27 16:00 13.25 4920 4690 (2002) 19 (1963) 567 48 68 99 118 250 560 640 1590 2690
2026-04-27 15:30 12.67 4460 4690 (2002) 19 (1963) 567 48 68 99 118 250 560 640 1590 2690
2026-04-27 15:00 11.83 3820 4690 (2002) 19 (1963) 567 48 68 99 118 250 560 640 1590 2690
2026-04-27 14:30 10.81 3090 4690 (2002) 19 (1963) 567 48 68 99 118 250 560 640 1590 2690
2026-04-27 14:00 9.77 2390 4690 (2002) 19 (1963) 567 48 68 99 118 250 560 640 1590 2690
2026-04-27 13:30 8.85 1680 4690 (2002) 19 (1963) 567 48 68 99 118 250 560 640 1590 2690
2026-04-27 13:00 7.68 809 4690 (2002) 19 (1963) 567 48 68 99 118 250 560 640 1590 2690
2026-04-27 12:30 6.80 384 4690 (2002) 19 (1963) 567 48 68 99 118 250 560 640 1590 2690
2026-04-27 12:00 6.46 267 4690 (2002) 19 (1963) 567 48 68 99 118 250 560 640 1590 2690
2026-04-27 11:30 6.34 222 4690 (2002) 19 (1963) 567 48 68 99 118 250 560 640 1590 2690
2026-04-27 11:00 6.27 199 4690 (2002) 19 (1963) 567 48 68 99 118 250 560 640 1590 2690
2026-04-27 10:30 6.20 177 4690 (2002) 19 (1963) 567 48 68 99 118 250 560 640 1590 2690
2026-04-27 10:00 6.19 174 4690 (2002) 19 (1963) 567 48 68 99 118 250 560 640 1590 2690
2026-04-27 09:30 6.25 192 4690 (2002) 19 (1963) 567 48 68 99 118 250 560 640 1590 2690
2026-04-27 09:00 6.25 192 4690 (2002) 19 (1963) 567 48 68 99 118 250 560 640 1590 2690
2026-04-27 08:30 6.26 195 4690 (2002) 19 (1963) 567 48 68 99 118 250 560 640 1590 2690
2026-04-27 08:00 6.17 168 4690 (2002) 19 (1963) 567 48 68 99 118 250 560 640 1590 2690
2026-04-27 07:30 6.20 177 4690 (2002) 19 (1963) 567 48 68 99 118 250 560 640 1590 2690
2026-04-27 07:00 6.21 180 4690 (2002) 19 (1963) 567 48 68 99 118 250 560 640 1590 2690
2026-04-27 06:30 6.24 189 4690 (2002) 19 (1963) 567 48 68 99 118 250 560 640 1590 2690
2026-04-27 06:00 6.26 195 4690 (2002) 19 (1963) 567 48 68 99 118 250 560 640 1590 2690
2026-04-27 05:30 6.20 177 4690 (2002) 19 (1963) 567 48 68 99 118 250 560 640 1590 2690
2026-04-27 05:00 6.18 171 4690 (2002) 19 (1963) 567 48 68 99 118 250 560 640 1590 2690
2026-04-27 04:30 6.18 171 4690 (2002) 19 (1963) 567 48 68 99 118 250 560 640 1590 2690
2026-04-27 04:00 6.26 195 4690 (2002) 19 (1963) 567 48 68 99 118 250 560 640 1590 2690
2026-04-27 03:30 6.18 171 4690 (2002) 19 (1963) 567 48 68 99 118 250 560 640 1590 2690
2026-04-27 03:00 6.18 171 4690 (2002) 19 (1963) 567 48 68 99 118 250 560 640 1590 2690
2026-04-27 02:30 6.20 177 4690 (2002) 19 (1963) 567 48 68 99 118 250 560 640 1590 2690
2026-04-27 02:00 6.19 174 4690 (2002) 19 (1963) 567 48 68 99 118 250 560 640 1590 2690
2026-04-27 01:30 6.22 183 4690 (2002) 19 (1963) 567 48 68 99 118 250 560 640 1590 2690
2026-04-27 01:00 6.23 186 4690 (2002) 19 (1963) 567 48 68 99 118 250 560 640 1590 2690
2026-04-27 00:30 6.23 186 4690 (2002) 19 (1963) 567 48 68 99 118 250 560 640 1590 2690
2026-04-27 00:00 6.23 186 4690 (2002) 19 (1963) 567 48 68 99 118 250 560 640 1590 2690
2026-04-26 23:30 6.21 180 4690 (2002) 19 (1963) 567 48 68 99 118 250 560 640 1590 2690
2026-04-26 23:00 6.22 183 4690 (2002) 19 (1963) 567 48 68 99 118 250 560 640 1590 2690
2026-04-26 22:30 6.22 183 13900 (1947) 20 (1963) 845 46 71 98 126 283 676 864 1470 3540
2026-04-26 22:00 6.22 183 13900 (1947) 20 (1963) 845 46 71 98 126 283 676 864 1470 3540
2026-04-26 21:30 6.22 183 13900 (1947) 20 (1963) 845 46 71 98 126 283 676 864 1470 3540
2026-04-26 21:00 6.22 183 13900 (1947) 20 (1963) 845 46 71 98 126 283 676 864 1470 3540
2026-04-26 20:30 6.23 186 13900 (1947) 20 (1963) 845 46 71 98 126 283 676 864 1470 3540
2026-04-26 20:00 6.23 186 13900 (1947) 20 (1963) 845 46 71 98 126 283 676 864 1470 3540
2026-04-26 19:30 6.23 186 13900 (1947) 20 (1963) 845 46 71 98 126 283 676 864 1470 3540
2026-04-26 19:00 6.23 186 13900 (1947) 20 (1963) 845 46 71 98 126 283 676 864 1470 3540
2026-04-26 18:30 6.17 168 13900 (1947) 20 (1963) 845 46 71 98 126 283 676 864 1470 3540
2026-04-26 18:00 6.17 168 13900 (1947) 20 (1963) 845 46 71 98 126 283 676 864 1470 3540
2026-04-26 17:30 6.18 171 13900 (1947) 20 (1963) 845 46 71 98 126 283 676 864 1470 3540
2026-04-26 17:00 6.16 165 13900 (1947) 20 (1963) 845 46 71 98 126 283 676 864 1470 3540
2026-04-26 16:30 6.18 171 13900 (1947) 20 (1963) 845 46 71 98 126 283 676 864 1470 3540
2026-04-26 16:00 6.17 168 13900 (1947) 20 (1963) 845 46 71 98 126 283 676 864 1470 3540
2026-04-26 15:30 6.17 168 13900 (1947) 20 (1963) 845 46 71 98 126 283 676 864 1470 3540
2026-04-26 15:00 6.23 186 13900 (1947) 20 (1963) 845 46 71 98 126 283 676 864 1470 3540
2026-04-26 14:30 6.17 168 13900 (1947) 20 (1963) 845 46 71 98 126 283 676 864 1470 3540
2026-04-26 14:00 6.21 180 13900 (1947) 20 (1963) 845 46 71 98 126 283 676 864 1470 3540
2026-04-26 13:30 6.22 183 13900 (1947) 20 (1963) 845 46 71 98 126 283 676 864 1470 3540
2026-04-26 13:00 6.20 177 13900 (1947) 20 (1963) 845 46 71 98 126 283 676 864 1470 3540
2026-04-26 12:30 6.25 192 13900 (1947) 20 (1963) 845 46 71 98 126 283 676 864 1470 3540
2026-04-26 12:00 6.20 177 13900 (1947) 20 (1963) 845 46 71 98 126 283 676 864 1470 3540
2026-04-26 11:30 6.19 174 13900 (1947) 20 (1963) 845 46 71 98 126 283 676 864 1470 3540
2026-04-26 11:00 6.19 174 13900 (1947) 20 (1963) 845 46 71 98 126 283 676 864 1470 3540
2026-04-26 10:30 6.18 171 13900 (1947) 20 (1963) 845 46 71 98 126 283 676 864 1470 3540
2026-04-26 10:00 6.19 174 13900 (1947) 20 (1963) 845 46 71 98 126 283 676 864 1470 3540
2026-04-26 09:30 6.21 180 13900 (1947) 20 (1963) 845 46 71 98 126 283 676 864 1470 3540
2026-04-26 09:00 6.26 195 13900 (1947) 20 (1963) 845 46 71 98 126 283 676 864 1470 3540
2026-04-26 08:30 6.25 192 13900 (1947) 20 (1963) 845 46 71 98 126 283 676 864 1470 3540
2026-04-26 08:00 6.27 199 13900 (1947) 20 (1963) 845 46 71 98 126 283 676 864 1470 3540
2026-04-26 07:30 6.28 202 13900 (1947) 20 (1963) 845 46 71 98 126 283 676 864 1470 3540
2026-04-26 07:00 6.28 202 13900 (1947) 20 (1963) 845 46 71 98 126 283 676 864 1470 3540
2026-04-26 06:30 6.29 205 13900 (1947) 20 (1963) 845 46 71 98 126 283 676 864 1470 3540
2026-04-26 06:00 6.29 205 13900 (1947) 20 (1963) 845 46 71 98 126 283 676 864 1470 3540
2026-04-26 05:30 6.29 205 13900 (1947) 20 (1963) 845 46 71 98 126 283 676 864 1470 3540
2026-04-26 05:00 6.29 205 13900 (1947) 20 (1963) 845 46 71 98 126 283 676 864 1470 3540
2026-04-26 04:30 6.29 205 13900 (1947) 20 (1963) 845 46 71 98 126 283 676 864 1470 3540
2026-04-26 04:00 6.29 205 13900 (1947) 20 (1963) 845 46 71 98 126 283 676 864 1470 3540
2026-04-26 03:30 6.29 205 13900 (1947) 20 (1963) 845 46 71 98 126 283 676 864 1470 3540
2026-04-26 03:00 6.30 208 13900 (1947) 20 (1963) 845 46 71 98 126 283 676 864 1470 3540
2026-04-26 02:30 6.30 208 13900 (1947) 20 (1963) 845 46 71 98 126 283 676 864 1470 3540
2026-04-26 02:00 6.30 208 13900 (1947) 20 (1963) 845 46 71 98 126 283 676 864 1470 3540
2026-04-26 01:30 6.30 208 13900 (1947) 20 (1963) 845 46 71 98 126 283 676 864 1470 3540
2026-04-26 01:00 6.30 208 13900 (1947) 20 (1963) 845 46 71 98 126 283 676 864 1470 3540
2026-04-26 00:30 6.31 212 13900 (1947) 20 (1963) 845 46 71 98 126 283 676 864 1470 3540
2026-04-26 00:00 6.31 212 13900 (1947) 20 (1963) 845 46 71 98 126 283 676 864 1470 3540
2026-04-25 23:30 6.31 212 13900 (1947) 20 (1963) 845 46 71 98 126 283 676 864 1470 3540
2026-04-25 23:00 6.31 212 13900 (1947) 20 (1963) 845 46 71 98 126 283 676 864 1470 3540
2026-04-25 22:30 6.32 215 29900 (1947) 10 (1956) 1280 45 70 107 131 296 787 1120 2710 6150
2026-04-25 22:00 6.32 215 29900 (1947) 10 (1956) 1280 45 70 107 131 296 787 1120 2710 6150
2026-04-25 21:30 6.32 215 29900 (1947) 10 (1956) 1280 45 70 107 131 296 787 1120 2710 6150
2026-04-25 21:00 6.32 215 29900 (1947) 10 (1956) 1280 45 70 107 131 296 787 1120 2710 6150
2026-04-25 20:30 6.32 215 29900 (1947) 10 (1956) 1280 45 70 107 131 296 787 1120 2710 6150
2026-04-25 20:00 6.32 215 29900 (1947) 10 (1956) 1280 45 70 107 131 296 787 1120 2710 6150
2026-04-25 19:30 6.33 219 29900 (1947) 10 (1956) 1280 45 70 107 131 296 787 1120 2710 6150
2026-04-25 19:00 6.33 219 29900 (1947) 10 (1956) 1280 45 70 107 131 296 787 1120 2710 6150
2026-04-25 18:30 6.33 219 29900 (1947) 10 (1956) 1280 45 70 107 131 296 787 1120 2710 6150
2026-04-25 18:00 6.31 212 29900 (1947) 10 (1956) 1280 45 70 107 131 296 787 1120 2710 6150
2026-04-25 17:30 6.29 205 29900 (1947) 10 (1956) 1280 45 70 107 131 296 787 1120 2710 6150
2026-04-25 17:00 6.34 222 29900 (1947) 10 (1956) 1280 45 70 107 131 296 787 1120 2710 6150
2026-04-25 16:30 6.32 215 29900 (1947) 10 (1956) 1280 45 70 107 131 296 787 1120 2710 6150
2026-04-25 16:00 6.34 222 29900 (1947) 10 (1956) 1280 45 70 107 131 296 787 1120 2710 6150
2026-04-25 15:30 6.35 226 29900 (1947) 10 (1956) 1280 45 70 107 131 296 787 1120 2710 6150
2026-04-25 15:00 6.36 229 29900 (1947) 10 (1956) 1280 45 70 107 131 296 787 1120 2710 6150
2026-04-25 14:30 6.34 222 29900 (1947) 10 (1956) 1280 45 70 107 131 296 787 1120 2710 6150
2026-04-25 14:00 6.32 215 29900 (1947) 10 (1956) 1280 45 70 107 131 296 787 1120 2710 6150
2026-04-25 13:30 6.35 226 29900 (1947) 10 (1956) 1280 45 70 107 131 296 787 1120 2710 6150
2026-04-25 13:00 6.36 229 29900 (1947) 10 (1956) 1280 45 70 107 131 296 787 1120 2710 6150
2026-04-25 12:30 6.36 229 29900 (1947) 10 (1956) 1280 45 70 107 131 296 787 1120 2710 6150
2026-04-25 12:00 6.37 233 29900 (1947) 10 (1956) 1280 45 70 107 131 296 787 1120 2710 6150
2026-04-25 11:30 6.37 233 29900 (1947) 10 (1956) 1280 45 70 107 131 296 787 1120 2710 6150
2026-04-25 11:00 6.37 233 29900 (1947) 10 (1956) 1280 45 70 107 131 296 787 1120 2710 6150
2026-04-25 10:30 6.37 233 29900 (1947) 10 (1956) 1280 45 70 107 131 296 787 1120 2710 6150
2026-04-25 10:00 6.37 233 29900 (1947) 10 (1956) 1280 45 70 107 131 296 787 1120 2710 6150
2026-04-25 09:30 6.37 233 29900 (1947) 10 (1956) 1280 45 70 107 131 296 787 1120 2710 6150
2026-04-25 09:00 6.38 237 29900 (1947) 10 (1956) 1280 45 70 107 131 296 787 1120 2710 6150
2026-04-25 08:30 6.38 237 29900 (1947) 10 (1956) 1280 45 70 107 131 296 787 1120 2710 6150
2026-04-25 08:00 6.39 240 29900 (1947) 10 (1956) 1280 45 70 107 131 296 787 1120 2710 6150
2026-04-25 07:30 6.39 240 29900 (1947) 10 (1956) 1280 45 70 107 131 296 787 1120 2710 6150
2026-04-25 07:00 6.39 240 29900 (1947) 10 (1956) 1280 45 70 107 131 296 787 1120 2710 6150
2026-04-25 06:30 6.40 244 29900 (1947) 10 (1956) 1280 45 70 107 131 296 787 1120 2710 6150
2026-04-25 06:00 6.40 244 29900 (1947) 10 (1956) 1280 45 70 107 131 296 787 1120 2710 6150
2026-04-25 05:30 6.40 244 29900 (1947) 10 (1956) 1280 45 70 107 131 296 787 1120 2710 6150
2026-04-25 05:00 6.41 248 29900 (1947) 10 (1956) 1280 45 70 107 131 296 787 1120 2710 6150
2026-04-25 04:30 6.41 248 29900 (1947) 10 (1956) 1280 45 70 107 131 296 787 1120 2710 6150
2026-04-25 04:00 6.41 248 29900 (1947) 10 (1956) 1280 45 70 107 131 296 787 1120 2710 6150
2026-04-25 03:30 6.41 248 29900 (1947) 10 (1956) 1280 45 70 107 131 296 787 1120 2710 6150
2026-04-25 03:00 6.41 248 29900 (1947) 10 (1956) 1280 45 70 107 131 296 787 1120 2710 6150
2026-04-25 02:30 6.42 251 29900 (1947) 10 (1956) 1280 45 70 107 131 296 787 1120 2710 6150
2026-04-25 02:00 6.42 251 29900 (1947) 10 (1956) 1280 45 70 107 131 296 787 1120 2710 6150
2026-04-25 01:30 6.42 251 29900 (1947) 10 (1956) 1280 45 70 107 131 296 787 1120 2710 6150
2026-04-25 01:00 6.43 255 29900 (1947) 10 (1956) 1280 45 70 107 131 296 787 1120 2710 6150
2026-04-25 00:30 6.42 251 29900 (1947) 10 (1956) 1280 45 70 107 131 296 787 1120 2710 6150
2026-04-25 00:00 6.43 255 29900 (1947) 10 (1956) 1280 45 70 107 131 296 787 1120 2710 6150
2026-04-24 23:30 6.43 255 29900 (1947) 10 (1956) 1280 45 70 107 131 296 787 1120 2710 6150
2026-04-24 23:00 6.43 255 29900 (1947) 10 (1956) 1280 45 70 107 131 296 787 1120 2710 6150
2026-04-24 22:30 6.43 255 8190 (1944) 4 (1956) 752 51 76 120 141 265 695 859 1530 3250
2026-04-24 22:00 6.44 259 8190 (1944) 4 (1956) 752 51 76 120 141 265 695 859 1530 3250
2026-04-24 21:30 6.44 259 8190 (1944) 4 (1956) 752 51 76 120 141 265 695 859 1530 3250
2026-04-24 21:00 6.44 259 8190 (1944) 4 (1956) 752 51 76 120 141 265 695 859 1530 3250
2026-04-24 20:30 6.44 259 8190 (1944) 4 (1956) 752 51 76 120 141 265 695 859 1530 3250
2026-04-24 20:00 6.45 263 8190 (1944) 4 (1956) 752 51 76 120 141 265 695 859 1530 3250
2026-04-24 19:30 6.45 263 8190 (1944) 4 (1956) 752 51 76 120 141 265 695 859 1530 3250
2026-04-24 19:00 6.45 263 8190 (1944) 4 (1956) 752 51 76 120 141 265 695 859 1530 3250
2026-04-24 18:30 6.45 263 8190 (1944) 4 (1956) 752 51 76 120 141 265 695 859 1530 3250
2026-04-24 18:00 6.45 263 8190 (1944) 4 (1956) 752 51 76 120 141 265 695 859 1530 3250
2026-04-24 17:30 6.46 267 8190 (1944) 4 (1956) 752 51 76 120 141 265 695 859 1530 3250
2026-04-24 17:00 6.46 267 8190 (1944) 4 (1956) 752 51 76 120 141 265 695 859 1530 3250
2026-04-24 16:30 6.46 267 8190 (1944) 4 (1956) 752 51 76 120 141 265 695 859 1530 3250
2026-04-24 16:00 6.47 270 8190 (1944) 4 (1956) 752 51 76 120 141 265 695 859 1530 3250
2026-04-24 15:30 6.47 270 8190 (1944) 4 (1956) 752 51 76 120 141 265 695 859 1530 3250
2026-04-24 15:00 6.47 270 8190 (1944) 4 (1956) 752 51 76 120 141 265 695 859 1530 3250
2026-04-24 14:30 6.47 270 8190 (1944) 4 (1956) 752 51 76 120 141 265 695 859 1530 3250
2026-04-24 14:00 6.48 273 8190 (1944) 4 (1956) 752 51 76 120 141 265 695 859 1530 3250
2026-04-24 13:30 6.48 273 8190 (1944) 4 (1956) 752 51 76 120 141 265 695 859 1530 3250
2026-04-24 13:00 6.48 273 8190 (1944) 4 (1956) 752 51 76 120 141 265 695 859 1530 3250
2026-04-24 12:30 6.48 273 8190 (1944) 4 (1956) 752 51 76 120 141 265 695 859 1530 3250
2026-04-24 12:00 6.43 255 8190 (1944) 4 (1956) 752 51 76 120 141 265 695 859 1530 3250
2026-04-24 11:30 6.49 276 8190 (1944) 4 (1956) 752 51 76 120 141 265 695 859 1530 3250
2026-04-24 11:00 6.50 280 8190 (1944) 4 (1956) 752 51 76 120 141 265 695 859 1530 3250
2026-04-24 10:30 6.50 280 8190 (1944) 4 (1956) 752 51 76 120 141 265 695 859 1530 3250
2026-04-24 10:00 6.50 280 8190 (1944) 4 (1956) 752 51 76 120 141 265 695 859 1530 3250
2026-04-24 09:30 6.50 280 8190 (1944) 4 (1956) 752 51 76 120 141 265 695 859 1530 3250
2026-04-24 09:00 6.51 283 8190 (1944) 4 (1956) 752 51 76 120 141 265 695 859 1530 3250
2026-04-24 08:30 6.51 283 8190 (1944) 4 (1956) 752 51 76 120 141 265 695 859 1530 3250
2026-04-24 08:00 6.51 283 8190 (1944) 4 (1956) 752 51 76 120 141 265 695 859 1530 3250
2026-04-24 07:30 6.51 283 8190 (1944) 4 (1956) 752 51 76 120 141 265 695 859 1530 3250
2026-04-24 07:00 6.46 267 8190 (1944) 4 (1956) 752 51 76 120 141 265 695 859 1530 3250
2026-04-24 06:30 6.44 259 8190 (1944) 4 (1956) 752 51 76 120 141 265 695 859 1530 3250
2026-04-24 06:00 6.50 280 8190 (1944) 4 (1956) 752 51 76 120 141 265 695 859 1530 3250
2026-04-24 05:30 6.50 280 8190 (1944) 4 (1956) 752 51 76 120 141 265 695 859 1530 3250
2026-04-24 05:00 6.51 283 8190 (1944) 4 (1956) 752 51 76 120 141 265 695 859 1530 3250
2026-04-24 04:30 6.49 276 8190 (1944) 4 (1956) 752 51 76 120 141 265 695 859 1530 3250
2026-04-24 04:00 6.52 286 8190 (1944) 4 (1956) 752 51 76 120 141 265 695 859 1530 3250
2026-04-24 03:30 6.52 286 8190 (1944) 4 (1956) 752 51 76 120 141 265 695 859 1530 3250
2026-04-24 03:00 6.52 286 8190 (1944) 4 (1956) 752 51 76 120 141 265 695 859 1530 3250
2026-04-24 02:30 6.50 280 8190 (1944) 4 (1956) 752 51 76 120 141 265 695 859 1530 3250
2026-04-24 02:00 6.48 273 8190 (1944) 4 (1956) 752 51 76 120 141 265 695 859 1530 3250
2026-04-24 01:30 6.52 286 8190 (1944) 4 (1956) 752 51 76 120 141 265 695 859 1530 3250
2026-04-24 01:00 6.52 286 8190 (1944) 4 (1956) 752 51 76 120 141 265 695 859 1530 3250
2026-04-24 00:30 6.52 286 8190 (1944) 4 (1956) 752 51 76 120 141 265 695 859 1530 3250
2026-04-24 00:00 6.52 286 8190 (1944) 4 (1956) 752 51 76 120 141 265 695 859 1530 3250
2026-04-23 23:30 6.53 289 8190 (1944) 4 (1956) 752 51 76 120 141 265 695 859 1530 3250
2026-04-23 23:00 6.53 289 8190 (1944) 4 (1956) 752 51 76 120 141 265 695 859 1530 3250
2026-04-23 22:30 6.53 289 24300 (1944) 4 (1956) 930 53 77 113 147 260 658 822 1490 4470
2026-04-23 22:00 6.54 292 24300 (1944) 4 (1956) 930 53 77 113 147 260 658 822 1490 4470
2026-04-23 21:30 6.54 292 24300 (1944) 4 (1956) 930 53 77 113 147 260 658 822 1490 4470
2026-04-23 21:00 6.54 292 24300 (1944) 4 (1956) 930 53 77 113 147 260 658 822 1490 4470
2026-04-23 20:30 6.54 292 24300 (1944) 4 (1956) 930 53 77 113 147 260 658 822 1490 4470
2026-04-23 20:00 6.55 296 24300 (1944) 4 (1956) 930 53 77 113 147 260 658 822 1490 4470
2026-04-23 19:30 6.49 276 24300 (1944) 4 (1956) 930 53 77 113 147 260 658 822 1490 4470
2026-04-23 19:00 6.51 283 24300 (1944) 4 (1956) 930 53 77 113 147 260 658 822 1490 4470
2026-04-23 18:30 6.50 280 24300 (1944) 4 (1956) 930 53 77 113 147 260 658 822 1490 4470
2026-04-23 18:00 6.50 280 24300 (1944) 4 (1956) 930 53 77 113 147 260 658 822 1490 4470
2026-04-23 17:30 6.54 292 24300 (1944) 4 (1956) 930 53 77 113 147 260 658 822 1490 4470
2026-04-23 17:00 6.52 286 24300 (1944) 4 (1956) 930 53 77 113 147 260 658 822 1490 4470
2026-04-23 16:30 6.56 299 24300 (1944) 4 (1956) 930 53 77 113 147 260 658 822 1490 4470
2026-04-23 16:00 6.58 305 24300 (1944) 4 (1956) 930 53 77 113 147 260 658 822 1490 4470
2026-04-23 15:30 6.58 305 24300 (1944) 4 (1956) 930 53 77 113 147 260 658 822 1490 4470
2026-04-23 15:00 6.54 292 24300 (1944) 4 (1956) 930 53 77 113 147 260 658 822 1490 4470
2026-04-23 14:30 6.59 309 24300 (1944) 4 (1956) 930 53 77 113 147 260 658 822 1490 4470
2026-04-23 14:00 6.59 309 24300 (1944) 4 (1956) 930 53 77 113 147 260 658 822 1490 4470
2026-04-23 13:30 6.54 292 24300 (1944) 4 (1956) 930 53 77 113 147 260 658 822 1490 4470
2026-04-23 13:00 6.52 286 24300 (1944) 4 (1956) 930 53 77 113 147 260 658 822 1490 4470
2026-04-23 12:30 6.55 296 24300 (1944) 4 (1956) 930 53 77 113 147 260 658 822 1490 4470
2026-04-23 12:00 6.60 312 24300 (1944) 4 (1956) 930 53 77 113 147 260 658 822 1490 4470
2026-04-23 11:30 6.61 315 24300 (1944) 4 (1956) 930 53 77 113 147 260 658 822 1490 4470
2026-04-23 11:00 6.61 315 24300 (1944) 4 (1956) 930 53 77 113 147 260 658 822 1490 4470
2026-04-23 10:30 6.61 315 24300 (1944) 4 (1956) 930 53 77 113 147 260 658 822 1490 4470
2026-04-23 10:00 6.61 315 24300 (1944) 4 (1956) 930 53 77 113 147 260 658 822 1490 4470
2026-04-23 09:30 6.62 319 24300 (1944) 4 (1956) 930 53 77 113 147 260 658 822 1490 4470
2026-04-23 09:00 6.62 319 24300 (1944) 4 (1956) 930 53 77 113 147 260 658 822 1490 4470
2026-04-23 08:30 6.62 319 24300 (1944) 4 (1956) 930 53 77 113 147 260 658 822 1490 4470
2026-04-23 08:00 6.63 322 24300 (1944) 4 (1956) 930 53 77 113 147 260 658 822 1490 4470
2026-04-23 07:30 6.64 326 24300 (1944) 4 (1956) 930 53 77 113 147 260 658 822 1490 4470
2026-04-23 07:00 6.65 329 24300 (1944) 4 (1956) 930 53 77 113 147 260 658 822 1490 4470
2026-04-23 06:30 6.65 329 24300 (1944) 4 (1956) 930 53 77 113 147 260 658 822 1490 4470
2026-04-23 06:00 6.65 329 24300 (1944) 4 (1956) 930 53 77 113 147 260 658 822 1490 4470
2026-04-23 05:30 6.66 333 24300 (1944) 4 (1956) 930 53 77 113 147 260 658 822 1490 4470
2026-04-23 05:00 6.66 333 24300 (1944) 4 (1956) 930 53 77 113 147 260 658 822 1490 4470
2026-04-23 04:30 6.66 333 24300 (1944) 4 (1956) 930 53 77 113 147 260 658 822 1490 4470
2026-04-23 04:00 6.67 336 24300 (1944) 4 (1956) 930 53 77 113 147 260 658 822 1490 4470
2026-04-23 03:30 6.67 336 24300 (1944) 4 (1956) 930 53 77 113 147 260 658 822 1490 4470
2026-04-23 03:00 6.67 336 24300 (1944) 4 (1956) 930 53 77 113 147 260 658 822 1490 4470
2026-04-23 02:30 6.68 340 24300 (1944) 4 (1956) 930 53 77 113 147 260 658 822 1490 4470
2026-04-23 02:00 6.68 340 24300 (1944) 4 (1956) 930 53 77 113 147 260 658 822 1490 4470
2026-04-23 01:30 6.68 340 24300 (1944) 4 (1956) 930 53 77 113 147 260 658 822 1490 4470
2026-04-23 01:00 6.69 343 24300 (1944) 4 (1956) 930 53 77 113 147 260 658 822 1490 4470
2026-04-23 00:30 6.69 343 24300 (1944) 4 (1956) 930 53 77 113 147 260 658 822 1490 4470
2026-04-23 00:00 6.69 343 24300 (1944) 4 (1956) 930 53 77 113 147 260 658 822 1490 4470
2026-04-22 23:30 6.70 347 24300 (1944) 4 (1956) 930 53 77 113 147 260 658 822 1490 4470
2026-04-22 23:00 6.70 347 24300 (1944) 4 (1956) 930 53 77 113 147 260 658 822 1490 4470
2026-04-22 22:30 6.71 350 18300 (1944) 7 (1956) 1170 53 64 116 141 286 835 1020 2750 5560
2026-04-22 22:00 6.71 350 18300 (1944) 7 (1956) 1170 53 64 116 141 286 835 1020 2750 5560
2026-04-22 21:30 6.72 354 18300 (1944) 7 (1956) 1170 53 64 116 141 286 835 1020 2750 5560
2026-04-22 21:00 6.72 354 18300 (1944) 7 (1956) 1170 53 64 116 141 286 835 1020 2750 5560
2026-04-22 20:30 6.72 354 18300 (1944) 7 (1956) 1170 53 64 116 141 286 835 1020 2750 5560
2026-04-22 20:00 6.73 358 18300 (1944) 7 (1956) 1170 53 64 116 141 286 835 1020 2750 5560
2026-04-22 19:30 6.73 358 18300 (1944) 7 (1956) 1170 53 64 116 141 286 835 1020 2750 5560
2026-04-22 19:00 6.74 361 18300 (1944) 7 (1956) 1170 53 64 116 141 286 835 1020 2750 5560
2026-04-22 18:30 6.74 361 18300 (1944) 7 (1956) 1170 53 64 116 141 286 835 1020 2750 5560
2026-04-22 18:00 6.75 365 18300 (1944) 7 (1956) 1170 53 64 116 141 286 835 1020 2750 5560
2026-04-22 17:30 6.76 369 18300 (1944) 7 (1956) 1170 53 64 116 141 286 835 1020 2750 5560
2026-04-22 17:00 6.76 369 18300 (1944) 7 (1956) 1170 53 64 116 141 286 835 1020 2750 5560
2026-04-22 16:30 6.70 347 18300 (1944) 7 (1956) 1170 53 64 116 141 286 835 1020 2750 5560
2026-04-22 16:00 6.75 365 18300 (1944) 7 (1956) 1170 53 64 116 141 286 835 1020 2750 5560
2026-04-22 15:30 6.72 354 18300 (1944) 7 (1956) 1170 53 64 116 141 286 835 1020 2750 5560
2026-04-22 15:00 6.75 365 18300 (1944) 7 (1956) 1170 53 64 116 141 286 835 1020 2750 5560
2026-04-22 14:30 6.78 376 18300 (1944) 7 (1956) 1170 53 64 116 141 286 835 1020 2750 5560
2026-04-22 14:00 6.73 358 18300 (1944) 7 (1956) 1170 53 64 116 141 286 835 1020 2750 5560
2026-04-22 13:30 6.79 380 18300 (1944) 7 (1956) 1170 53 64 116 141 286 835 1020 2750 5560
2026-04-22 13:00 6.79 380 18300 (1944) 7 (1956) 1170 53 64 116 141 286 835 1020 2750 5560
2026-04-22 12:30 6.79 380 18300 (1944) 7 (1956) 1170 53 64 116 141 286 835 1020 2750 5560
2026-04-22 12:00 6.78 376 18300 (1944) 7 (1956) 1170 53 64 116 141 286 835 1020 2750 5560
2026-04-22 11:30 6.78 376 18300 (1944) 7 (1956) 1170 53 64 116 141 286 835 1020 2750 5560
2026-04-22 11:00 6.76 369 18300 (1944) 7 (1956) 1170 53 64 116 141 286 835 1020 2750 5560
2026-04-22 10:30 6.80 384 18300 (1944) 7 (1956) 1170 53 64 116 141 286 835 1020 2750 5560
2026-04-22 10:00 6.83 395 18300 (1944) 7 (1956) 1170 53 64 116 141 286 835 1020 2750 5560
2026-04-22 09:30 6.83 395 18300 (1944) 7 (1956) 1170 53 64 116 141 286 835 1020 2750 5560
2026-04-22 09:00 6.82 391 18300 (1944) 7 (1956) 1170 53 64 116 141 286 835 1020 2750 5560
2026-04-22 08:30 6.84 399 18300 (1944) 7 (1956) 1170 53 64 116 141 286 835 1020 2750 5560
2026-04-22 08:00 6.85 403 18300 (1944) 7 (1956) 1170 53 64 116 141 286 835 1020 2750 5560
2026-04-22 07:30 6.86 407 18300 (1944) 7 (1956) 1170 53 64 116 141 286 835 1020 2750 5560
2026-04-22 07:00 6.87 411 18300 (1944) 7 (1956) 1170 53 64 116 141 286 835 1020 2750 5560
2026-04-22 06:30 6.88 415 18300 (1944) 7 (1956) 1170 53 64 116 141 286 835 1020 2750 5560
2026-04-22 06:00 6.88 415 18300 (1944) 7 (1956) 1170 53 64 116 141 286 835 1020 2750 5560
2026-04-22 05:30 6.88 415 18300 (1944) 7 (1956) 1170 53 64 116 141 286 835 1020 2750 5560
2026-04-22 05:00 6.88 415 18300 (1944) 7 (1956) 1170 53 64 116 141 286 835 1020 2750 5560
2026-04-22 04:30 6.89 419 18300 (1944) 7 (1956) 1170 53 64 116 141 286 835 1020 2750 5560
2026-04-22 04:00 6.90 423 18300 (1944) 7 (1956) 1170 53 64 116 141 286 835 1020 2750 5560
2026-04-22 03:30 6.91 427 18300 (1944) 7 (1956) 1170 53 64 116 141 286 835 1020 2750 5560
2026-04-22 03:00 6.91 427 18300 (1944) 7 (1956) 1170 53 64 116 141 286 835 1020 2750 5560
2026-04-22 02:30 6.92 431 18300 (1944) 7 (1956) 1170 53 64 116 141 286 835 1020 2750 5560
2026-04-22 02:00 6.93 435 18300 (1944) 7 (1956) 1170 53 64 116 141 286 835 1020 2750 5560
2026-04-22 01:30 6.93 435 18300 (1944) 7 (1956) 1170 53 64 116 141 286 835 1020 2750 5560
2026-04-22 01:00 6.93 435 18300 (1944) 7 (1956) 1170 53 64 116 141 286 835 1020 2750 5560
2026-04-22 00:30 6.93 435 18300 (1944) 7 (1956) 1170 53 64 116 141 286 835 1020 2750 5560
2026-04-22 00:00 6.95 443 18300 (1944) 7 (1956) 1170 53 64 116 141 286 835 1020 2750 5560
2026-04-21 23:30 6.95 443 18300 (1944) 7 (1956) 1170 53 64 116 141 286 835 1020 2750 5560
2026-04-21 23:00 6.95 443 18300 (1944) 7 (1956) 1170 53 64 116 141 286 835 1020 2750 5560
2026-04-21 22:30 6.96 380 18500 (1966) 6 (1956) 1420 45 69 119 134 275 950 1630 3190 9080
2026-04-21 22:00 6.97 384 18500 (1966) 6 (1956) 1420 45 69 119 134 275 950 1630 3190 9080
2026-04-21 21:30 6.98 387 18500 (1966) 6 (1956) 1420 45 69 119 134 275 950 1630 3190 9080
2026-04-21 21:00 6.98 387 18500 (1966) 6 (1956) 1420 45 69 119 134 275 950 1630 3190 9080
2026-04-21 20:30 6.99 391 18500 (1966) 6 (1956) 1420 45 69 119 134 275 950 1630 3190 9080
2026-04-21 20:00 7.00 395 18500 (1966) 6 (1956) 1420 45 69 119 134 275 950 1630 3190 9080
2026-04-21 19:30 7.01 399 18500 (1966) 6 (1956) 1420 45 69 119 134 275 950 1630 3190 9080
2026-04-21 19:00 6.96 380 18500 (1966) 6 (1956) 1420 45 69 119 134 275 950 1630 3190 9080
2026-04-21 18:30 7.00 395 18500 (1966) 6 (1956) 1420 45 69 119 134 275 950 1630 3190 9080
2026-04-21 18:00 7.04 411 18500 (1966) 6 (1956) 1420 45 69 119 134 275 950 1630 3190 9080
2026-04-21 17:30 6.97 384 18500 (1966) 6 (1956) 1420 45 69 119 134 275 950 1630 3190 9080
2026-04-21 17:00 7.06 419 18500 (1966) 6 (1956) 1420 45 69 119 134 275 950 1630 3190 9080
2026-04-21 16:30 7.03 407 18500 (1966) 6 (1956) 1420 45 69 119 134 275 950 1630 3190 9080
2026-04-21 16:00 7.06 419 18500 (1966) 6 (1956) 1420 45 69 119 134 275 950 1630 3190 9080
2026-04-21 15:30 7.08 427 18500 (1966) 6 (1956) 1420 45 69 119 134 275 950 1630 3190 9080
2026-04-21 15:00 7.03 407 18500 (1966) 6 (1956) 1420 45 69 119 134 275 950 1630 3190 9080
2026-04-21 14:30 7.09 431 18500 (1966) 6 (1956) 1420 45 69 119 134 275 950 1630 3190 9080
2026-04-21 14:00 7.09 431 18500 (1966) 6 (1956) 1420 45 69 119 134 275 950 1630 3190 9080
2026-04-21 13:30 7.10 435 18500 (1966) 6 (1956) 1420 45 69 119 134 275 950 1630 3190 9080
2026-04-21 13:00 7.12 443 18500 (1966) 6 (1956) 1420 45 69 119 134 275 950 1630 3190 9080
2026-04-21 12:30 7.14 451 18500 (1966) 6 (1956) 1420 45 69 119 134 275 950 1630 3190 9080
2026-04-21 12:00 7.14 451 18500 (1966) 6 (1956) 1420 45 69 119 134 275 950 1630 3190 9080
2026-04-21 11:30 7.15 456 18500 (1966) 6 (1956) 1420 45 69 119 134 275 950 1630 3190 9080
2026-04-21 11:00 7.13 447 18500 (1966) 6 (1956) 1420 45 69 119 134 275 950 1630 3190 9080
2026-04-21 10:30 7.14 451 18500 (1966) 6 (1956) 1420 45 69 119 134 275 950 1630 3190 9080
2026-04-21 10:00 7.16 460 18500 (1966) 6 (1956) 1420 45 69 119 134 275 950 1630 3190 9080
2026-04-21 09:30 7.16 460 18500 (1966) 6 (1956) 1420 45 69 119 134 275 950 1630 3190 9080
2026-04-21 09:00 7.17 464 18500 (1966) 6 (1956) 1420 45 69 119 134 275 950 1630 3190 9080
2026-04-21 08:30 7.21 481 18500 (1966) 6 (1956) 1420 45 69 119 134 275 950 1630 3190 9080
2026-04-21 08:00 7.21 481 18500 (1966) 6 (1956) 1420 45 69 119 134 275 950 1630 3190 9080
2026-04-21 07:30 7.23 490 18500 (1966) 6 (1956) 1420 45 69 119 134 275 950 1630 3190 9080
2026-04-21 07:00 7.24 494 18500 (1966) 6 (1956) 1420 45 69 119 134 275 950 1630 3190 9080
2026-04-21 06:30 7.25 499 18500 (1966) 6 (1956) 1420 45 69 119 134 275 950 1630 3190 9080
2026-04-21 06:00 7.26 503 18500 (1966) 6 (1956) 1420 45 69 119 134 275 950 1630 3190 9080
2026-04-21 05:30 7.27 508 18500 (1966) 6 (1956) 1420 45 69 119 134 275 950 1630 3190 9080
2026-04-21 05:00 7.29 517 18500 (1966) 6 (1956) 1420 45 69 119 134 275 950 1630 3190 9080
2026-04-21 04:30 7.30 521 18500 (1966) 6 (1956) 1420 45 69 119 134 275 950 1630 3190 9080
2026-04-21 04:00 7.31 526 18500 (1966) 6 (1956) 1420 45 69 119 134 275 950 1630 3190 9080
2026-04-21 03:30 7.32 531 18500 (1966) 6 (1956) 1420 45 69 119 134 275 950 1630 3190 9080
2026-04-21 03:00 7.34 540 18500 (1966) 6 (1956) 1420 45 69 119 134 275 950 1630 3190 9080
2026-04-21 02:30 7.35 544 18500 (1966) 6 (1956) 1420 45 69 119 134 275 950 1630 3190 9080
2026-04-21 02:00 7.36 549 18500 (1966) 6 (1956) 1420 45 69 119 134 275 950 1630 3190 9080
2026-04-21 01:30 7.37 554 18500 (1966) 6 (1956) 1420 45 69 119 134 275 950 1630 3190 9080
2026-04-21 01:00 7.39 563 18500 (1966) 6 (1956) 1420 45 69 119 134 275 950 1630 3190 9080
2026-04-21 00:30 7.39 563 18500 (1966) 6 (1956) 1420 45 69 119 134 275 950 1630 3190 9080
2026-04-21 00:00 7.41 573 18500 (1966) 6 (1956) 1420 45 69 119 134 275 950 1630 3190 9080
2026-04-20 23:30 7.42 578 18500 (1966) 6 (1956) 1420 45 69 119 134 275 950 1630 3190 9080
2026-04-20 23:00 7.44 588 18500 (1966) 6 (1956) 1420 45 69 119 134 275 950 1630 3190 9080
2026-04-20 22:30 7.45 592 32300 (1941) 5 (1956) 1390 30 71 116 131 282 617 881 3770 6410
2026-04-20 22:00 7.46 597 32300 (1941) 5 (1956) 1390 30 71 116 131 282 617 881 3770 6410
2026-04-20 21:30 7.47 602 32300 (1941) 5 (1956) 1390 30 71 116 131 282 617 881 3770 6410
2026-04-20 21:00 7.50 617 32300 (1941) 5 (1956) 1390 30 71 116 131 282 617 881 3770 6410
2026-04-20 20:30 7.50 617 32300 (1941) 5 (1956) 1390 30 71 116 131 282 617 881 3770 6410
2026-04-20 20:00 7.52 627 32300 (1941) 5 (1956) 1390 30 71 116 131 282 617 881 3770 6410
2026-04-20 19:30 7.54 638 32300 (1941) 5 (1956) 1390 30 71 116 131 282 617 881 3770 6410
2026-04-20 19:00 7.55 643 32300 (1941) 5 (1956) 1390 30 71 116 131 282 617 881 3770 6410
2026-04-20 18:30 7.57 653 32300 (1941) 5 (1956) 1390 30 71 116 131 282 617 881 3770 6410
2026-04-20 18:00 7.55 643 32300 (1941) 5 (1956) 1390 30 71 116 131 282 617 881 3770 6410
2026-04-20 17:30 7.59 664 32300 (1941) 5 (1956) 1390 30 71 116 131 282 617 881 3770 6410
2026-04-20 17:00 7.55 643 32300 (1941) 5 (1956) 1390 30 71 116 131 282 617 881 3770 6410
2026-04-20 16:30 7.62 680 32300 (1941) 5 (1956) 1390 30 71 116 131 282 617 881 3770 6410
2026-04-20 16:00 7.66 701 32300 (1941) 5 (1956) 1390 30 71 116 131 282 617 881 3770 6410
2026-04-20 15:30 7.65 696 32300 (1941) 5 (1956) 1390 30 71 116 131 282 617 881 3770 6410
2026-04-20 15:00 7.70 723 32300 (1941) 5 (1956) 1390 30 71 116 131 282 617 881 3770 6410
2026-04-20 14:30 7.73 740 32300 (1941) 5 (1956) 1390 30 71 116 131 282 617 881 3770 6410
2026-04-20 14:00 7.74 745 32300 (1941) 5 (1956) 1390 30 71 116 131 282 617 881 3770 6410
2026-04-20 13:30 7.73 740 32300 (1941) 5 (1956) 1390 30 71 116 131 282 617 881 3770 6410
2026-04-20 13:00 7.78 768 32300 (1941) 5 (1956) 1390 30 71 116 131 282 617 881 3770 6410
2026-04-20 12:30 7.81 785 32300 (1941) 5 (1956) 1390 30 71 116 131 282 617 881 3770 6410
2026-04-20 12:00 7.82 791 32300 (1941) 5 (1956) 1390 30 71 116 131 282 617 881 3770 6410
2026-04-20 11:30 7.85 809 32300 (1941) 5 (1956) 1390 30 71 116 131 282 617 881 3770 6410
2026-04-20 11:00 7.87 821 32300 (1941) 5 (1956) 1390 30 71 116 131 282 617 881 3770 6410
2026-04-20 10:30 7.90 839 32300 (1941) 5 (1956) 1390 30 71 116 131 282 617 881 3770 6410
2026-04-20 10:00 7.91 845 32300 (1941) 5 (1956) 1390 30 71 116 131 282 617 881 3770 6410
2026-04-20 09:30 7.94 863 32300 (1941) 5 (1956) 1390 30 71 116 131 282 617 881 3770 6410
2026-04-20 09:00 7.96 875 32300 (1941) 5 (1956) 1390 30 71 116 131 282 617 881 3770 6410
2026-04-20 08:30 7.98 888 32300 (1941) 5 (1956) 1390 30 71 116 131 282 617 881 3770 6410
2026-04-20 08:00 8.01 907 32300 (1941) 5 (1956) 1390 30 71 116 131 282 617 881 3770 6410
2026-04-20 07:30 8.04 926 32300 (1941) 5 (1956) 1390 30 71 116 131 282 617 881 3770 6410
2026-04-20 07:00 8.07 945 32300 (1941) 5 (1956) 1390 30 71 116 131 282 617 881 3770 6410
2026-04-20 06:30 8.09 958 32300 (1941) 5 (1956) 1390 30 71 116 131 282 617 881 3770 6410
2026-04-20 06:00 8.11 971 32300 (1941) 5 (1956) 1390 30 71 116 131 282 617 881 3770 6410
2026-04-20 05:30 8.15 998 32300 (1941) 5 (1956) 1390 30 71 116 131 282 617 881 3770 6410
2026-04-20 05:00 8.17 1010 32300 (1941) 5 (1956) 1390 30 71 116 131 282 617 881 3770 6410
2026-04-20 04:30 8.20 1030 32300 (1941) 5 (1956) 1390 30 71 116 131 282 617 881 3770 6410
2026-04-20 04:00 8.23 1050 32300 (1941) 5 (1956) 1390 30 71 116 131 282 617 881 3770 6410
2026-04-20 03:30 8.25 1070 32300 (1941) 5 (1956) 1390 30 71 116 131 282 617 881 3770 6410
2026-04-20 03:00 8.29 1090 32300 (1941) 5 (1956) 1390 30 71 116 131 282 617 881 3770 6410
2026-04-20 02:30 8.31 1110 32300 (1941) 5 (1956) 1390 30 71 116 131 282 617 881 3770 6410
2026-04-20 02:00 8.35 1140 32300 (1941) 5 (1956) 1390 30 71 116 131 282 617 881 3770 6410
2026-04-20 01:30 8.37 1150 32300 (1941) 5 (1956) 1390 30 71 116 131 282 617 881 3770 6410
2026-04-20 01:00 8.40 1170 32300 (1941) 5 (1956) 1390 30 71 116 131 282 617 881 3770 6410
2026-04-20 00:30 8.44 1200 32300 (1941) 5 (1956) 1390 30 71 116 131 282 617 881 3770 6410
2026-04-20 00:00 8.47 1230 32300 (1941) 5 (1956) 1390 30 71 116 131 282 617 881 3770 6410
2026-04-19 23:30 8.50 1250 32300 (1941) 5 (1956) 1390 30 71 116 131 282 617 881 3770 6410
2026-04-19 23:00 8.53 1270 32300 (1941) 5 (1956) 1390 30 71 116 131 282 617 881 3770 6410
2026-04-19 22:30 8.56 1300 17800 (2013) 7 (1956) 1080 28 74 115 136 293 527 728 2170 4990
2026-04-19 22:00 8.60 1330 17800 (2013) 7 (1956) 1080 28 74 115 136 293 527 728 2170 4990
2026-04-19 21:30 8.63 1350 17800 (2013) 7 (1956) 1080 28 74 115 136 293 527 728 2170 4990
2026-04-19 21:00 8.65 1370 17800 (2013) 7 (1956) 1080 28 74 115 136 293 527 728 2170 4990
2026-04-19 20:30 8.69 1400 17800 (2013) 7 (1956) 1080 28 74 115 136 293 527 728 2170 4990
2026-04-19 20:00 8.73 1430 17800 (2013) 7 (1956) 1080 28 74 115 136 293 527 728 2170 4990
2026-04-19 19:30 8.75 1450 17800 (2013) 7 (1956) 1080 28 74 115 136 293 527 728 2170 4990
2026-04-19 19:00 8.78 1470 17800 (2013) 7 (1956) 1080 28 74 115 136 293 527 728 2170 4990
2026-04-19 18:30 8.83 1520 17800 (2013) 7 (1956) 1080 28 74 115 136 293 527 728 2170 4990
2026-04-19 18:00 8.86 1540 17800 (2013) 7 (1956) 1080 28 74 115 136 293 527 728 2170 4990
2026-04-19 17:30 8.91 1590 17800 (2013) 7 (1956) 1080 28 74 115 136 293 527 728 2170 4990
2026-04-19 17:00 8.94 1610 17800 (2013) 7 (1956) 1080 28 74 115 136 293 527 728 2170 4990
2026-04-19 16:30 8.98 1650 17800 (2013) 7 (1956) 1080 28 74 115 136 293 527 728 2170 4990
2026-04-19 16:00 9.02 1680 17800 (2013) 7 (1956) 1080 28 74 115 136 293 527 728 2170 4990
2026-04-19 15:30 9.04 1700 17800 (2013) 7 (1956) 1080 28 74 115 136 293 527 728 2170 4990
2026-04-19 15:00 9.08 1740 17800 (2013) 7 (1956) 1080 28 74 115 136 293 527 728 2170 4990
2026-04-19 14:30 9.14 1800 17800 (2013) 7 (1956) 1080 28 74 115 136 293 527 728 2170 4990
2026-04-19 14:00 9.16 1810 17800 (2013) 7 (1956) 1080 28 74 115 136 293 527 728 2170 4990
2026-04-19 13:30 9.20 1850 17800 (2013) 7 (1956) 1080 28 74 115 136 293 527 728 2170 4990
2026-04-19 13:00 9.27 1920 17800 (2013) 7 (1956) 1080 28 74 115 136 293 527 728 2170 4990
2026-04-19 12:30 9.30 1950 17800 (2013) 7 (1956) 1080 28 74 115 136 293 527 728 2170 4990
2026-04-19 12:00 9.35 2000 17800 (2013) 7 (1956) 1080 28 74 115 136 293 527 728 2170 4990
2026-04-19 11:30 9.40 2050 17800 (2013) 7 (1956) 1080 28 74 115 136 293 527 728 2170 4990
2026-04-19 11:00 9.45 2090 17800 (2013) 7 (1956) 1080 28 74 115 136 293 527 728 2170 4990
2026-04-19 10:30 9.52 2130 17800 (2013) 7 (1956) 1080 28 74 115 136 293 527 728 2170 4990
2026-04-19 10:00 9.56 2150 17800 (2013) 7 (1956) 1080 28 74 115 136 293 527 728 2170 4990
2026-04-19 09:30 9.66 2220 17800 (2013) 7 (1956) 1080 28 74 115 136 293 527 728 2170 4990
2026-04-19 09:00 9.73 2260 17800 (2013) 7 (1956) 1080 28 74 115 136 293 527 728 2170 4990
2026-04-19 08:30 9.80 2310 17800 (2013) 7 (1956) 1080 28 74 115 136 293 527 728 2170 4990
2026-04-19 08:00 9.90 2370 17800 (2013) 7 (1956) 1080 28 74 115 136 293 527 728 2170 4990
2026-04-19 07:30 9.99 2430 17800 (2013) 7 (1956) 1080 28 74 115 136 293 527 728 2170 4990
2026-04-19 07:00 10.12 2520 17800 (2013) 7 (1956) 1080 28 74 115 136 293 527 728 2170 4990
2026-04-19 06:30 10.22 2580 17800 (2013) 7 (1956) 1080 28 74 115 136 293 527 728 2170 4990
2026-04-19 06:00 10.34 2660 17800 (2013) 7 (1956) 1080 28 74 115 136 293 527 728 2170 4990
2026-04-19 05:30 10.46 2740 17800 (2013) 7 (1956) 1080 28 74 115 136 293 527 728 2170 4990
2026-04-19 05:00 10.61 2850 17800 (2013) 7 (1956) 1080 28 74 115 136 293 527 728 2170 4990
2026-04-19 04:30 10.76 2950 17800 (2013) 7 (1956) 1080 28 74 115 136 293 527 728 2170 4990
2026-04-19 04:00 10.91 3050 17800 (2013) 7 (1956) 1080 28 74 115 136 293 527 728 2170 4990
2026-04-19 03:30 11.07 3170 17800 (2013) 7 (1956) 1080 28 74 115 136 293 527 728 2170 4990
2026-04-19 03:00 11.26 3300 17800 (2013) 7 (1956) 1080 28 74 115 136 293 527 728 2170 4990
2026-04-19 02:30 11.44 3430 17800 (2013) 7 (1956) 1080 28 74 115 136 293 527 728 2170 4990
2026-04-19 02:00 11.66 3590 17800 (2013) 7 (1956) 1080 28 74 115 136 293 527 728 2170 4990
2026-04-19 01:30 11.86 3740 17800 (2013) 7 (1956) 1080 28 74 115 136 293 527 728 2170 4990
2026-04-19 01:00 12.10 3920 17800 (2013) 7 (1956) 1080 28 74 115 136 293 527 728 2170 4990
2026-04-19 00:30 12.34 4110 17800 (2013) 7 (1956) 1080 28 74 115 136 293 527 728 2170 4990
2026-04-19 00:00 12.57 4290 17800 (2013) 7 (1956) 1080 28 74 115 136 293 527 728 2170 4990
2026-04-18 23:30 12.81 4470 17800 (2013) 7 (1956) 1080 28 74 115 136 293 527 728 2170 4990
2026-04-18 23:00 13.07 4680 17800 (2013) 7 (1956) 1080 28 74 115 136 293 527 728 2170 4990
2026-04-18 22:30 13.32 4880 13000 (2013) 8 (1956) 931 24 71 124 147 305 713 857 1650 5020
2026-04-18 22:00 13.56 5080 13000 (2013) 8 (1956) 931 24 71 124 147 305 713 857 1650 5020
2026-04-18 21:30 13.79 5270 13000 (2013) 8 (1956) 931 24 71 124 147 305 713 857 1650 5020
2026-04-18 21:00 14.02 5460 13000 (2013) 8 (1956) 931 24 71 124 147 305 713 857 1650 5020
2026-04-18 20:30 14.23 5640 13000 (2013) 8 (1956) 931 24 71 124 147 305 713 857 1650 5020
2026-04-18 20:00 14.46 5840 13000 (2013) 8 (1956) 931 24 71 124 147 305 713 857 1650 5020
2026-04-18 19:30 14.65 6000 13000 (2013) 8 (1956) 931 24 71 124 147 305 713 857 1650 5020
2026-04-18 19:00 14.83 6160 13000 (2013) 8 (1956) 931 24 71 124 147 305 713 857 1650 5020
2026-04-18 18:30 15.00 6310 13000 (2013) 8 (1956) 931 24 71 124 147 305 713 857 1650 5020
2026-04-18 18:00 15.12 6410 13000 (2013) 8 (1956) 931 24 71 124 147 305 713 857 1650 5020
2026-04-18 17:30 15.19 6480 13000 (2013) 8 (1956) 931 24 71 124 147 305 713 857 1650 5020
2026-04-18 17:00 15.25 6530 13000 (2013) 8 (1956) 931 24 71 124 147 305 713 857 1650 5020
2026-04-18 16:30 15.23 6510 13000 (2013) 8 (1956) 931 24 71 124 147 305 713 857 1650 5020
2026-04-18 16:00 15.15 6440 13000 (2013) 8 (1956) 931 24 71 124 147 305 713 857 1650 5020
2026-04-18 15:30 15.03 6340 13000 (2013) 8 (1956) 931 24 71 124 147 305 713 857 1650 5020
2026-04-18 15:00 14.81 6140 13000 (2013) 8 (1956) 931 24 71 124 147 305 713 857 1650 5020
2026-04-18 14:30 14.49 5860 13000 (2013) 8 (1956) 931 24 71 124 147 305 713 857 1650 5020
2026-04-18 14:00 14.10 5530 13000 (2013) 8 (1956) 931 24 71 124 147 305 713 857 1650 5020
2026-04-18 13:30 13.55 5070 13000 (2013) 8 (1956) 931 24 71 124 147 305 713 857 1650 5020
2026-04-18 13:00 12.84 4500 13000 (2013) 8 (1956) 931 24 71 124 147 305 713 857 1650 5020
2026-04-18 12:30 11.97 3830 13000 (2013) 8 (1956) 931 24 71 124 147 305 713 857 1650 5020
2026-04-18 12:00 10.96 3090 13000 (2013) 8 (1956) 931 24 71 124 147 305 713 857 1650 5020
2026-04-18 11:30 9.77 2290 13000 (2013) 8 (1956) 931 24 71 124 147 305 713 857 1650 5020
2026-04-18 11:00 8.90 1580 13000 (2013) 8 (1956) 931 24 71 124 147 305 713 857 1650 5020
2026-04-18 10:30 8.74 1440 13000 (2013) 8 (1956) 931 24 71 124 147 305 713 857 1650 5020
2026-04-18 10:00 8.66 1370 13000 (2013) 8 (1956) 931 24 71 124 147 305 713 857 1650 5020
2026-04-18 09:30 8.50 1250 13000 (2013) 8 (1956) 931 24 71 124 147 305 713 857 1650 5020
2026-04-18 09:00 8.24 1060 13000 (2013) 8 (1956) 931 24 71 124 147 305 713 857 1650 5020
2026-04-18 08:30 7.83 797 13000 (2013) 8 (1956) 931 24 71 124 147 305 713 857 1650 5020
2026-04-18 08:00 7.39 563 13000 (2013) 8 (1956) 931 24 71 124 147 305 713 857 1650 5020
2026-04-18 07:30 7.16 460 13000 (2013) 8 (1956) 931 24 71 124 147 305 713 857 1650 5020
2026-04-18 07:00 7.06 419 13000 (2013) 8 (1956) 931 24 71 124 147 305 713 857 1650 5020
2026-04-18 06:30 6.97 384 13000 (2013) 8 (1956) 931 24 71 124 147 305 713 857 1650 5020
2026-04-18 06:00 6.85 340 13000 (2013) 8 (1956) 931 24 71 124 147 305 713 857 1650 5020
2026-04-18 05:30 6.66 276 13000 (2013) 8 (1956) 931 24 71 124 147 305 713 857 1650 5020
2026-04-18 05:00 6.57 244 13000 (2013) 8 (1956) 931 24 71 124 147 305 713 857 1650 5020
2026-04-18 04:30 6.47 208 13000 (2013) 8 (1956) 931 24 71 124 147 305 713 857 1650 5020
2026-04-18 04:00 6.44 199 13000 (2013) 8 (1956) 931 24 71 124 147 305 713 857 1650 5020
2026-04-18 03:30 6.38 180 13000 (2013) 8 (1956) 931 24 71 124 147 305 713 857 1650 5020
2026-04-18 03:00 6.37 177 13000 (2013) 8 (1956) 931 24 71 124 147 305 713 857 1650 5020
2026-04-18 02:30 6.28 151 13000 (2013) 8 (1956) 931 24 71 124 147 305 713 857 1650 5020
2026-04-18 02:00 6.25 143 13000 (2013) 8 (1956) 931 24 71 124 147 305 713 857 1650 5020
2026-04-18 01:30 6.24 141 13000 (2013) 8 (1956) 931 24 71 124 147 305 713 857 1650 5020
2026-04-18 01:00 6.24 141 13000 (2013) 8 (1956) 931 24 71 124 147 305 713 857 1650 5020
2026-04-18 00:30 6.25 143 13000 (2013) 8 (1956) 931 24 71 124 147 305 713 857 1650 5020
2026-04-18 00:00 6.25 143 13000 (2013) 8 (1956) 931 24 71 124 147 305 713 857 1650 5020
2026-04-17 23:30 6.23 138 13000 (2013) 8 (1956) 931 24 71 124 147 305 713 857 1650 5020
2026-04-17 23:00 6.23 138 13000 (2013) 8 (1956) 931 24 71 124 147 305 713 857 1650 5020
2026-04-17 22:30 6.23 138 22500 (1939) 10 (1956) 1230 39 78 127 148 306 707 947 2650 7300
2026-04-17 22:00 6.16 121 22500 (1939) 10 (1956) 1230 39 78 127 148 306 707 947 2650 7300
2026-04-17 21:30 6.18 126 22500 (1939) 10 (1956) 1230 39 78 127 148 306 707 947 2650 7300
2026-04-17 21:00 6.17 123 22500 (1939) 10 (1956) 1230 39 78 127 148 306 707 947 2650 7300
2026-04-17 20:30 6.18 126 22500 (1939) 10 (1956) 1230 39 78 127 148 306 707 947 2650 7300
2026-04-17 20:00 6.18 126 22500 (1939) 10 (1956) 1230 39 78 127 148 306 707 947 2650 7300
2026-04-17 19:30 6.15 119 22500 (1939) 10 (1956) 1230 39 78 127 148 306 707 947 2650 7300
2026-04-17 19:00 6.13 114 22500 (1939) 10 (1956) 1230 39 78 127 148 306 707 947 2650 7300
2026-04-17 18:30 6.18 126 22500 (1939) 10 (1956) 1230 39 78 127 148 306 707 947 2650 7300
2026-04-17 18:00 6.18 126 22500 (1939) 10 (1956) 1230 39 78 127 148 306 707 947 2650 7300
2026-04-17 17:30 6.18 126 22500 (1939) 10 (1956) 1230 39 78 127 148 306 707 947 2650 7300
2026-04-17 17:00 6.15 119 22500 (1939) 10 (1956) 1230 39 78 127 148 306 707 947 2650 7300
2026-04-17 16:30 6.14 117 22500 (1939) 10 (1956) 1230 39 78 127 148 306 707 947 2650 7300
2026-04-17 16:00 6.17 123 22500 (1939) 10 (1956) 1230 39 78 127 148 306 707 947 2650 7300
2026-04-17 15:30 6.18 126 22500 (1939) 10 (1956) 1230 39 78 127 148 306 707 947 2650 7300
2026-04-17 15:00 6.15 119 22500 (1939) 10 (1956) 1230 39 78 127 148 306 707 947 2650 7300
2026-04-17 14:30 6.18 126 22500 (1939) 10 (1956) 1230 39 78 127 148 306 707 947 2650 7300
2026-04-17 14:00 6.18 126 22500 (1939) 10 (1956) 1230 39 78 127 148 306 707 947 2650 7300
2026-04-17 13:30 6.14 117 22500 (1939) 10 (1956) 1230 39 78 127 148 306 707 947 2650 7300
2026-04-17 13:00 6.19 128 22500 (1939) 10 (1956) 1230 39 78 127 148 306 707 947 2650 7300
2026-04-17 12:30 6.18 126 22500 (1939) 10 (1956) 1230 39 78 127 148 306 707 947 2650 7300
2026-04-17 12:00 6.15 119 22500 (1939) 10 (1956) 1230 39 78 127 148 306 707 947 2650 7300
2026-04-17 11:30 6.15 119 22500 (1939) 10 (1956) 1230 39 78 127 148 306 707 947 2650 7300
2026-04-17 11:00 6.14 117 22500 (1939) 10 (1956) 1230 39 78 127 148 306 707 947 2650 7300
2026-04-17 10:30 6.18 126 22500 (1939) 10 (1956) 1230 39 78 127 148 306 707 947 2650 7300
2026-04-17 10:00 6.19 128 22500 (1939) 10 (1956) 1230 39 78 127 148 306 707 947 2650 7300
2026-04-17 09:30 6.19 128 22500 (1939) 10 (1956) 1230 39 78 127 148 306 707 947 2650 7300
2026-04-17 09:00 6.19 128 22500 (1939) 10 (1956) 1230 39 78 127 148 306 707 947 2650 7300
2026-04-17 08:30 6.20 131 22500 (1939) 10 (1956) 1230 39 78 127 148 306 707 947 2650 7300
2026-04-17 08:00 6.20 131 22500 (1939) 10 (1956) 1230 39 78 127 148 306 707 947 2650 7300
2026-04-17 07:30 6.20 131 22500 (1939) 10 (1956) 1230 39 78 127 148 306 707 947 2650 7300
2026-04-17 07:00 6.21 133 22500 (1939) 10 (1956) 1230 39 78 127 148 306 707 947 2650 7300
2026-04-17 06:30 6.20 131 22500 (1939) 10 (1956) 1230 39 78 127 148 306 707 947 2650 7300
2026-04-17 06:00 6.20 131 22500 (1939) 10 (1956) 1230 39 78 127 148 306 707 947 2650 7300
2026-04-17 05:30 6.21 133 22500 (1939) 10 (1956) 1230 39 78 127 148 306 707 947 2650 7300
2026-04-17 05:00 6.21 133 22500 (1939) 10 (1956) 1230 39 78 127 148 306 707 947 2650 7300
2026-04-17 04:30 6.21 133 22500 (1939) 10 (1956) 1230 39 78 127 148 306 707 947 2650 7300
2026-04-17 04:00 6.21 133 22500 (1939) 10 (1956) 1230 39 78 127 148 306 707 947 2650 7300
2026-04-17 03:30 6.21 133 22500 (1939) 10 (1956) 1230 39 78 127 148 306 707 947 2650 7300
2026-04-17 03:00 6.21 133 22500 (1939) 10 (1956) 1230 39 78 127 148 306 707 947 2650 7300
2026-04-17 02:30 6.21 133 22500 (1939) 10 (1956) 1230 39 78 127 148 306 707 947 2650 7300
2026-04-17 02:00 6.21 133 22500 (1939) 10 (1956) 1230 39 78 127 148 306 707 947 2650 7300
2026-04-17 01:30 6.21 133 22500 (1939) 10 (1956) 1230 39 78 127 148 306 707 947 2650 7300
2026-04-17 01:00 6.21 133 22500 (1939) 10 (1956) 1230 39 78 127 148 306 707 947 2650 7300
2026-04-17 00:30 6.21 133 22500 (1939) 10 (1956) 1230 39 78 127 148 306 707 947 2650 7300
2026-04-17 00:00 6.21 133 22500 (1939) 10 (1956) 1230 39 78 127 148 306 707 947 2650 7300
2026-04-16 23:30 6.21 133 22500 (1939) 10 (1956) 1230 39 78 127 148 306 707 947 2650 7300
2026-04-16 23:00 6.21 133 22500 (1939) 10 (1956) 1230 39 78 127 148 306 707 947 2650 7300
2026-04-16 22:30 6.21 133 28500 (1939) 10 (1956) 1380 47 74 121 154 276 855 965 3370 8330
2026-04-16 22:00 6.21 133 28500 (1939) 10 (1956) 1380 47 74 121 154 276 855 965 3370 8330
2026-04-16 21:30 6.21 133 28500 (1939) 10 (1956) 1380 47 74 121 154 276 855 965 3370 8330
2026-04-16 21:00 6.21 133 28500 (1939) 10 (1956) 1380 47 74 121 154 276 855 965 3370 8330
2026-04-16 20:30 6.21 133 28500 (1939) 10 (1956) 1380 47 74 121 154 276 855 965 3370 8330
2026-04-16 20:00 6.22 136 28500 (1939) 10 (1956) 1380 47 74 121 154 276 855 965 3370 8330
2026-04-16 19:30 6.21 133 28500 (1939) 10 (1956) 1380 47 74 121 154 276 855 965 3370 8330
2026-04-16 19:00 6.22 136 28500 (1939) 10 (1956) 1380 47 74 121 154 276 855 965 3370 8330
2026-04-16 18:30 6.20 131 28500 (1939) 10 (1956) 1380 47 74 121 154 276 855 965 3370 8330
2026-04-16 18:00 6.22 136 28500 (1939) 10 (1956) 1380 47 74 121 154 276 855 965 3370 8330
2026-04-16 17:30 6.22 136 28500 (1939) 10 (1956) 1380 47 74 121 154 276 855 965 3370 8330
2026-04-16 17:00 6.22 136 28500 (1939) 10 (1956) 1380 47 74 121 154 276 855 965 3370 8330
2026-04-16 16:30 6.23 138 28500 (1939) 10 (1956) 1380 47 74 121 154 276 855 965 3370 8330
2026-04-16 16:00 6.23 138 28500 (1939) 10 (1956) 1380 47 74 121 154 276 855 965 3370 8330
2026-04-16 15:30 6.23 138 28500 (1939) 10 (1956) 1380 47 74 121 154 276 855 965 3370 8330
2026-04-16 15:00 6.17 123 28500 (1939) 10 (1956) 1380 47 74 121 154 276 855 965 3370 8330
2026-04-16 14:30 6.23 138 28500 (1939) 10 (1956) 1380 47 74 121 154 276 855 965 3370 8330
2026-04-16 14:00 6.20 131 28500 (1939) 10 (1956) 1380 47 74 121 154 276 855 965 3370 8330
2026-04-16 13:30 6.23 138 28500 (1939) 10 (1956) 1380 47 74 121 154 276 855 965 3370 8330
2026-04-16 13:00 6.19 128 28500 (1939) 10 (1956) 1380 47 74 121 154 276 855 965 3370 8330
2026-04-16 12:30 6.18 126 28500 (1939) 10 (1956) 1380 47 74 121 154 276 855 965 3370 8330
2026-04-16 12:00 6.17 123 28500 (1939) 10 (1956) 1380 47 74 121 154 276 855 965 3370 8330
2026-04-16 11:30 6.21 133 28500 (1939) 10 (1956) 1380 47 74 121 154 276 855 965 3370 8330
2026-04-16 11:00 6.19 128 28500 (1939) 10 (1956) 1380 47 74 121 154 276 855 965 3370 8330
2026-04-16 10:30 6.18 126 28500 (1939) 10 (1956) 1380 47 74 121 154 276 855 965 3370 8330
2026-04-16 10:00 6.21 133 28500 (1939) 10 (1956) 1380 47 74 121 154 276 855 965 3370 8330
2026-04-16 09:30 6.18 126 28500 (1939) 10 (1956) 1380 47 74 121 154 276 855 965 3370 8330
2026-04-16 09:00 6.18 126 28500 (1939) 10 (1956) 1380 47 74 121 154 276 855 965 3370 8330
2026-04-16 08:30 6.24 141 28500 (1939) 10 (1956) 1380 47 74 121 154 276 855 965 3370 8330
2026-04-16 08:00 6.24 141 28500 (1939) 10 (1956) 1380 47 74 121 154 276 855 965 3370 8330
2026-04-16 07:30 6.24 141 28500 (1939) 10 (1956) 1380 47 74 121 154 276 855 965 3370 8330
2026-04-16 07:00 6.24 141 28500 (1939) 10 (1956) 1380 47 74 121 154 276 855 965 3370 8330
2026-04-16 06:30 6.24 141 28500 (1939) 10 (1956) 1380 47 74 121 154 276 855 965 3370 8330
2026-04-16 06:00 6.24 141 28500 (1939) 10 (1956) 1380 47 74 121 154 276 855 965 3370 8330
2026-04-16 05:30 6.24 141 28500 (1939) 10 (1956) 1380 47 74 121 154 276 855 965 3370 8330
2026-04-16 05:00 6.24 141 28500 (1939) 10 (1956) 1380 47 74 121 154 276 855 965 3370 8330
2026-04-16 04:30 6.24 141 28500 (1939) 10 (1956) 1380 47 74 121 154 276 855 965 3370 8330
2026-04-16 04:00 6.24 141 28500 (1939) 10 (1956) 1380 47 74 121 154 276 855 965 3370 8330
2026-04-16 03:30 6.24 141 28500 (1939) 10 (1956) 1380 47 74 121 154 276 855 965 3370 8330
2026-04-16 03:00 6.24 141 28500 (1939) 10 (1956) 1380 47 74 121 154 276 855 965 3370 8330
2026-04-16 02:30 6.23 138 28500 (1939) 10 (1956) 1380 47 74 121 154 276 855 965 3370 8330
2026-04-16 02:00 6.20 131 28500 (1939) 10 (1956) 1380 47 74 121 154 276 855 965 3370 8330
2026-04-16 01:30 6.23 138 28500 (1939) 10 (1956) 1380 47 74 121 154 276 855 965 3370 8330
2026-04-16 01:00 6.21 133 28500 (1939) 10 (1956) 1380 47 74 121 154 276 855 965 3370 8330
2026-04-16 00:30 6.16 121 28500 (1939) 10 (1956) 1380 47 74 121 154 276 855 965 3370 8330
2026-04-16 00:00 6.17 123 28500 (1939) 10 (1956) 1380 47 74 121 154 276 855 965 3370 8330
2026-04-15 23:30 6.23 138 28500 (1939) 10 (1956) 1380 47 74 121 154 276 855 965 3370 8330
2026-04-15 23:00 6.22 136 28500 (1939) 10 (1956) 1380 47 74 121 154 276 855 965 3370 8330
2026-04-15 22:30 6.20 131 20400 (1993) 8 (1956) 1350 45 74 119 140 316 886 1310 4330 6840
2026-04-15 22:00 6.19 128 20400 (1993) 8 (1956) 1350 45 74 119 140 316 886 1310 4330 6840
2026-04-15 21:30 6.14 117 20400 (1993) 8 (1956) 1350 45 74 119 140 316 886 1310 4330 6840
2026-04-15 21:00 6.14 117 20400 (1993) 8 (1956) 1350 45 74 119 140 316 886 1310 4330 6840
2026-04-15 20:30 6.19 128 20400 (1993) 8 (1956) 1350 45 74 119 140 316 886 1310 4330 6840
2026-04-15 20:00 6.19 128 20400 (1993) 8 (1956) 1350 45 74 119 140 316 886 1310 4330 6840
2026-04-15 19:30 6.19 128 20400 (1993) 8 (1956) 1350 45 74 119 140 316 886 1310 4330 6840
2026-04-15 19:00 6.19 128 20400 (1993) 8 (1956) 1350 45 74 119 140 316 886 1310 4330 6840
2026-04-15 18:30 6.19 128 20400 (1993) 8 (1956) 1350 45 74 119 140 316 886 1310 4330 6840
2026-04-15 18:00 6.18 126 20400 (1993) 8 (1956) 1350 45 74 119 140 316 886 1310 4330 6840
2026-04-15 17:30 6.15 119 20400 (1993) 8 (1956) 1350 45 74 119 140 316 886 1310 4330 6840
2026-04-15 17:00 6.20 131 20400 (1993) 8 (1956) 1350 45 74 119 140 316 886 1310 4330 6840
2026-04-15 16:30 6.20 131 20400 (1993) 8 (1956) 1350 45 74 119 140 316 886 1310 4330 6840
2026-04-15 16:00 6.20 131 20400 (1993) 8 (1956) 1350 45 74 119 140 316 886 1310 4330 6840
2026-04-15 15:30 6.20 131 20400 (1993) 8 (1956) 1350 45 74 119 140 316 886 1310 4330 6840
2026-04-15 15:00 6.18 126 20400 (1993) 8 (1956) 1350 45 74 119 140 316 886 1310 4330 6840
2026-04-15 14:30 6.20 131 20400 (1993) 8 (1956) 1350 45 74 119 140 316 886 1310 4330 6840
2026-04-15 14:00 6.18 126 20400 (1993) 8 (1956) 1350 45 74 119 140 316 886 1310 4330 6840
2026-04-15 13:30 6.20 131 20400 (1993) 8 (1956) 1350 45 74 119 140 316 886 1310 4330 6840
2026-04-15 13:00 6.18 126 20400 (1993) 8 (1956) 1350 45 74 119 140 316 886 1310 4330 6840
2026-04-15 12:30 6.19 128 20400 (1993) 8 (1956) 1350 45 74 119 140 316 886 1310 4330 6840
2026-04-15 12:00 6.21 133 20400 (1993) 8 (1956) 1350 45 74 119 140 316 886 1310 4330 6840
2026-04-15 11:30 6.20 131 20400 (1993) 8 (1956) 1350 45 74 119 140 316 886 1310 4330 6840
2026-04-15 11:00 6.22 136 20400 (1993) 8 (1956) 1350 45 74 119 140 316 886 1310 4330 6840
2026-04-15 10:30 6.21 133 20400 (1993) 8 (1956) 1350 45 74 119 140 316 886 1310 4330 6840
2026-04-15 10:00 6.22 136 20400 (1993) 8 (1956) 1350 45 74 119 140 316 886 1310 4330 6840
2026-04-15 09:30 6.16 121 20400 (1993) 8 (1956) 1350 45 74 119 140 316 886 1310 4330 6840
2026-04-15 09:00 6.15 119 20400 (1993) 8 (1956) 1350 45 74 119 140 316 886 1310 4330 6840
2026-04-15 08:30 6.22 136 20400 (1993) 8 (1956) 1350 45 74 119 140 316 886 1310 4330 6840
2026-04-15 08:00 6.22 136 20400 (1993) 8 (1956) 1350 45 74 119 140 316 886 1310 4330 6840
2026-04-15 07:30 6.22 136 20400 (1993) 8 (1956) 1350 45 74 119 140 316 886 1310 4330 6840
2026-04-15 07:00 6.22 136 20400 (1993) 8 (1956) 1350 45 74 119 140 316 886 1310 4330 6840
2026-04-15 06:30 6.22 136 20400 (1993) 8 (1956) 1350 45 74 119 140 316 886 1310 4330 6840
2026-04-15 06:00 6.23 138 20400 (1993) 8 (1956) 1350 45 74 119 140 316 886 1310 4330 6840
2026-04-15 05:30 6.23 138 20400 (1993) 8 (1956) 1350 45 74 119 140 316 886 1310 4330 6840
2026-04-15 05:00 6.23 138 20400 (1993) 8 (1956) 1350 45 74 119 140 316 886 1310 4330 6840
2026-04-15 04:30 6.20 131 20400 (1993) 8 (1956) 1350 45 74 119 140 316 886 1310 4330 6840
2026-04-15 04:00 6.16 121 20400 (1993) 8 (1956) 1350 45 74 119 140 316 886 1310 4330 6840
2026-04-15 03:30 6.17 123 20400 (1993) 8 (1956) 1350 45 74 119 140 316 886 1310 4330 6840
2026-04-15 03:00 6.18 126 20400 (1993) 8 (1956) 1350 45 74 119 140 316 886 1310 4330 6840
2026-04-15 02:30 6.18 126 20400 (1993) 8 (1956) 1350 45 74 119 140 316 886 1310 4330 6840
2026-04-15 02:00 6.20 131 20400 (1993) 8 (1956) 1350 45 74 119 140 316 886 1310 4330 6840
2026-04-15 01:30 6.23 138 20400 (1993) 8 (1956) 1350 45 74 119 140 316 886 1310 4330 6840
2026-04-15 01:00 6.22 136 20400 (1993) 8 (1956) 1350 45 74 119 140 316 886 1310 4330 6840
2026-04-15 00:30 6.24 141 20400 (1993) 8 (1956) 1350 45 74 119 140 316 886 1310 4330 6840
2026-04-15 00:00 6.20 131 20400 (1993) 8 (1956) 1350 45 74 119 140 316 886 1310 4330 6840
2026-04-14 23:30 6.22 136 20400 (1993) 8 (1956) 1350 45 74 119 140 316 886 1310 4330 6840
2026-04-14 23:00 6.17 123 20400 (1993) 8 (1956) 1350 45 74 119 140 316 886 1310 4330 6840
2026-04-14 22:30 6.20 131 14700 (1922) 8 (1956) 1320 50 78 133 149 295 932 1420 3530 6270
2026-04-14 22:00 6.21 133 14700 (1922) 8 (1956) 1320 50 78 133 149 295 932 1420 3530 6270
2026-04-14 21:30 6.19 128 14700 (1922) 8 (1956) 1320 50 78 133 149 295 932 1420 3530 6270
2026-04-14 21:00 6.22 136 14700 (1922) 8 (1956) 1320 50 78 133 149 295 932 1420 3530 6270
2026-04-14 20:30 6.24 141 14700 (1922) 8 (1956) 1320 50 78 133 149 295 932 1420 3530 6270
2026-04-14 20:00 6.24 141 14700 (1922) 8 (1956) 1320 50 78 133 149 295 932 1420 3530 6270
2026-04-14 19:30 6.21 133 14700 (1922) 8 (1956) 1320 50 78 133 149 295 932 1420 3530 6270
2026-04-14 19:00 6.24 141 14700 (1922) 8 (1956) 1320 50 78 133 149 295 932 1420 3530 6270
2026-04-14 18:30 6.25 143 14700 (1922) 8 (1956) 1320 50 78 133 149 295 932 1420 3530 6270
2026-04-14 18:00 6.19 128 14700 (1922) 8 (1956) 1320 50 78 133 149 295 932 1420 3530 6270
2026-04-14 17:30 6.21 133 14700 (1922) 8 (1956) 1320 50 78 133 149 295 932 1420 3530 6270
2026-04-14 17:00 6.25 143 14700 (1922) 8 (1956) 1320 50 78 133 149 295 932 1420 3530 6270
2026-04-14 16:30 6.26 146 14700 (1922) 8 (1956) 1320 50 78 133 149 295 932 1420 3530 6270
2026-04-14 16:00 6.21 133 14700 (1922) 8 (1956) 1320 50 78 133 149 295 932 1420 3530 6270
2026-04-14 15:30 6.26 146 14700 (1922) 8 (1956) 1320 50 78 133 149 295 932 1420 3530 6270
2026-04-14 15:00 6.24 141 14700 (1922) 8 (1956) 1320 50 78 133 149 295 932 1420 3530 6270
2026-04-14 14:30 6.23 138 14700 (1922) 8 (1956) 1320 50 78 133 149 295 932 1420 3530 6270
2026-04-14 14:00 6.21 133 14700 (1922) 8 (1956) 1320 50 78 133 149 295 932 1420 3530 6270
2026-04-14 13:30 6.25 143 14700 (1922) 8 (1956) 1320 50 78 133 149 295 932 1420 3530 6270
2026-04-14 13:00 6.26 146 14700 (1922) 8 (1956) 1320 50 78 133 149 295 932 1420 3530 6270
2026-04-14 12:30 6.25 143 14700 (1922) 8 (1956) 1320 50 78 133 149 295 932 1420 3530 6270
2026-04-14 12:00 6.24 141 14700 (1922) 8 (1956) 1320 50 78 133 149 295 932 1420 3530 6270
2026-04-14 10:00 6.26 146 14700 (1922) 8 (1956) 1320 50 78 133 149 295 932 1420 3530 6270
2026-04-14 09:00 6.28 151 14700 (1922) 8 (1956) 1320 50 78 133 149 295 932 1420 3530 6270
2026-04-14 08:30 6.28 151 14700 (1922) 8 (1956) 1320 50 78 133 149 295 932 1420 3530 6270
2026-04-14 08:00 6.28 151 14700 (1922) 8 (1956) 1320 50 78 133 149 295 932 1420 3530 6270
2026-04-14 07:30 6.28 151 14700 (1922) 8 (1956) 1320 50 78 133 149 295 932 1420 3530 6270
2026-04-14 07:00 6.28 151 14700 (1922) 8 (1956) 1320 50 78 133 149 295 932 1420 3530 6270
2026-04-14 06:30 6.28 151 14700 (1922) 8 (1956) 1320 50 78 133 149 295 932 1420 3530 6270
2026-04-14 06:00 6.29 154 14700 (1922) 8 (1956) 1320 50 78 133 149 295 932 1420 3530 6270
2026-04-14 05:30 6.29 154 14700 (1922) 8 (1956) 1320 50 78 133 149 295 932 1420 3530 6270
2026-04-14 05:00 6.29 154 14700 (1922) 8 (1956) 1320 50 78 133 149 295 932 1420 3530 6270
2026-04-14 04:30 6.29 154 14700 (1922) 8 (1956) 1320 50 78 133 149 295 932 1420 3530 6270
2026-04-14 04:00 6.29 154 14700 (1922) 8 (1956) 1320 50 78 133 149 295 932 1420 3530 6270
2026-04-14 03:30 6.29 154 14700 (1922) 8 (1956) 1320 50 78 133 149 295 932 1420 3530 6270
2026-04-14 03:00 6.29 154 14700 (1922) 8 (1956) 1320 50 78 133 149 295 932 1420 3530 6270
2026-04-14 02:30 6.28 151 14700 (1922) 8 (1956) 1320 50 78 133 149 295 932 1420 3530 6270
2026-04-14 02:00 6.23 138 14700 (1922) 8 (1956) 1320 50 78 133 149 295 932 1420 3530 6270
2026-04-14 01:30 6.25 143 14700 (1922) 8 (1956) 1320 50 78 133 149 295 932 1420 3530 6270
2026-04-14 01:00 6.25 143 14700 (1922) 8 (1956) 1320 50 78 133 149 295 932 1420 3530 6270
2026-04-14 00:30 6.24 141 14700 (1922) 8 (1956) 1320 50 78 133 149 295 932 1420 3530 6270
2026-04-14 00:00 6.26 146 14700 (1922) 8 (1956) 1320 50 78 133 149 295 932 1420 3530 6270
2026-04-13 23:30 6.25 143 14700 (1922) 8 (1956) 1320 50 78 133 149 295 932 1420 3530 6270
2026-04-13 23:00 6.28 151 14700 (1922) 8 (1956) 1320 50 78 133 149 295 932 1420 3530 6270
2026-04-13 22:30 6.27 148 36100 (1927) 8 (1956) 1440 52 83 114 152 294 944 1280 2770 5700
2026-04-13 22:00 6.28 151 36100 (1927) 8 (1956) 1440 52 83 114 152 294 944 1280 2770 5700
2026-04-13 21:30 6.29 154 36100 (1927) 8 (1956) 1440 52 83 114 152 294 944 1280 2770 5700
2026-04-13 20:30 6.29 154 36100 (1927) 8 (1956) 1440 52 83 114 152 294 944 1280 2770 5700
2026-04-13 20:00 6.29 154 36100 (1927) 8 (1956) 1440 52 83 114 152 294 944 1280 2770 5700
2026-04-13 19:30 6.29 154 36100 (1927) 8 (1956) 1440 52 83 114 152 294 944 1280 2770 5700
2026-04-13 19:00 6.30 157 36100 (1927) 8 (1956) 1440 52 83 114 152 294 944 1280 2770 5700
2026-04-13 18:30 6.21 133 36100 (1927) 8 (1956) 1440 52 83 114 152 294 944 1280 2770 5700
2026-04-13 18:00 6.28 151 36100 (1927) 8 (1956) 1440 52 83 114 152 294 944 1280 2770 5700
2026-04-13 17:30 6.25 143 36100 (1927) 8 (1956) 1440 52 83 114 152 294 944 1280 2770 5700
2026-04-13 17:00 6.30 157 36100 (1927) 8 (1956) 1440 52 83 114 152 294 944 1280 2770 5700
2026-04-13 16:30 6.30 157 36100 (1927) 8 (1956) 1440 52 83 114 152 294 944 1280 2770 5700
2026-04-13 16:00 6.30 157 36100 (1927) 8 (1956) 1440 52 83 114 152 294 944 1280 2770 5700
2026-04-13 15:30 6.30 157 36100 (1927) 8 (1956) 1440 52 83 114 152 294 944 1280 2770 5700
2026-04-13 15:00 6.29 154 36100 (1927) 8 (1956) 1440 52 83 114 152 294 944 1280 2770 5700
2026-04-13 14:30 6.30 157 36100 (1927) 8 (1956) 1440 52 83 114 152 294 944 1280 2770 5700
2026-04-13 14:00 6.25 143 36100 (1927) 8 (1956) 1440 52 83 114 152 294 944 1280 2770 5700
2026-04-13 13:30 6.29 154 36100 (1927) 8 (1956) 1440 52 83 114 152 294 944 1280 2770 5700
2026-04-13 13:00 6.31 159 36100 (1927) 8 (1956) 1440 52 83 114 152 294 944 1280 2770 5700
2026-04-13 12:30 6.31 159 36100 (1927) 8 (1956) 1440 52 83 114 152 294 944 1280 2770 5700
2026-04-13 12:00 6.31 159 36100 (1927) 8 (1956) 1440 52 83 114 152 294 944 1280 2770 5700
2026-04-13 11:30 6.28 151 36100 (1927) 8 (1956) 1440 52 83 114 152 294 944 1280 2770 5700
2026-04-13 11:00 6.31 159 36100 (1927) 8 (1956) 1440 52 83 114 152 294 944 1280 2770 5700
2026-04-13 10:30 6.31 159 36100 (1927) 8 (1956) 1440 52 83 114 152 294 944 1280 2770 5700
2026-04-13 10:00 6.31 159 36100 (1927) 8 (1956) 1440 52 83 114 152 294 944 1280 2770 5700
2026-04-13 09:30 6.32 162 36100 (1927) 8 (1956) 1440 52 83 114 152 294 944 1280 2770 5700
2026-04-13 09:00 6.32 162 36100 (1927) 8 (1956) 1440 52 83 114 152 294 944 1280 2770 5700
2026-04-13 08:30 6.32 162 36100 (1927) 8 (1956) 1440 52 83 114 152 294 944 1280 2770 5700
2026-04-13 08:00 6.33 165 36100 (1927) 8 (1956) 1440 52 83 114 152 294 944 1280 2770 5700
2026-04-13 07:30 6.33 165 36100 (1927) 8 (1956) 1440 52 83 114 152 294 944 1280 2770 5700
2026-04-13 07:00 6.33 165 36100 (1927) 8 (1956) 1440 52 83 114 152 294 944 1280 2770 5700
2026-04-13 06:30 6.33 165 36100 (1927) 8 (1956) 1440 52 83 114 152 294 944 1280 2770 5700
2026-04-13 06:00 6.33 165 36100 (1927) 8 (1956) 1440 52 83 114 152 294 944 1280 2770 5700
2026-04-13 05:30 6.33 165 36100 (1927) 8 (1956) 1440 52 83 114 152 294 944 1280 2770 5700
2026-04-13 05:00 6.33 165 36100 (1927) 8 (1956) 1440 52 83 114 152 294 944 1280 2770 5700
2026-04-13 04:30 6.34 168 36100 (1927) 8 (1956) 1440 52 83 114 152 294 944 1280 2770 5700
2026-04-13 04:00 6.33 165 36100 (1927) 8 (1956) 1440 52 83 114 152 294 944 1280 2770 5700
2026-04-13 03:30 6.34 168 36100 (1927) 8 (1956) 1440 52 83 114 152 294 944 1280 2770 5700
2026-04-13 03:00 6.34 168 36100 (1927) 8 (1956) 1440 52 83 114 152 294 944 1280 2770 5700
2026-04-13 02:30 6.34 168 36100 (1927) 8 (1956) 1440 52 83 114 152 294 944 1280 2770 5700
2026-04-13 02:00 6.34 168 36100 (1927) 8 (1956) 1440 52 83 114 152 294 944 1280 2770 5700
2026-04-13 01:30 6.34 168 36100 (1927) 8 (1956) 1440 52 83 114 152 294 944 1280 2770 5700
2026-04-13 01:00 6.34 168 36100 (1927) 8 (1956) 1440 52 83 114 152 294 944 1280 2770 5700
2026-04-13 00:30 6.34 168 36100 (1927) 8 (1956) 1440 52 83 114 152 294 944 1280 2770 5700
2026-04-13 00:00 6.34 168 36100 (1927) 8 (1956) 1440 52 83 114 152 294 944 1280 2770 5700
2026-04-12 23:30 6.35 171 36100 (1927) 8 (1956) 1440 52 83 114 152 294 944 1280 2770 5700
2026-04-12 23:00 6.35 171 36100 (1927) 8 (1956) 1440 52 83 114 152 294 944 1280 2770 5700
2026-04-12 22:30 6.35 171 72000 (1994) 8 (1956) 1850 45 83 115 151 318 1030 1130 3110 5920
2026-04-12 22:00 6.35 171 72000 (1994) 8 (1956) 1850 45 83 115 151 318 1030 1130 3110 5920
2026-04-12 21:30 6.35 171 72000 (1994) 8 (1956) 1850 45 83 115 151 318 1030 1130 3110 5920
2026-04-12 21:00 6.35 171 72000 (1994) 8 (1956) 1850 45 83 115 151 318 1030 1130 3110 5920
2026-04-12 20:30 6.36 174 72000 (1994) 8 (1956) 1850 45 83 115 151 318 1030 1130 3110 5920
2026-04-12 20:00 6.36 174 72000 (1994) 8 (1956) 1850 45 83 115 151 318 1030 1130 3110 5920
2026-04-12 19:30 6.36 174 72000 (1994) 8 (1956) 1850 45 83 115 151 318 1030 1130 3110 5920
2026-04-12 19:00 6.30 157 72000 (1994) 8 (1956) 1850 45 83 115 151 318 1030 1130 3110 5920
2026-04-12 18:30 6.28 151 72000 (1994) 8 (1956) 1850 45 83 115 151 318 1030 1130 3110 5920
2026-04-12 18:00 6.33 165 72000 (1994) 8 (1956) 1850 45 83 115 151 318 1030 1130 3110 5920
2026-04-12 17:30 6.35 171 72000 (1994) 8 (1956) 1850 45 83 115 151 318 1030 1130 3110 5920
2026-04-12 17:00 6.37 177 72000 (1994) 8 (1956) 1850 45 83 115 151 318 1030 1130 3110 5920
2026-04-12 16:30 6.37 177 72000 (1994) 8 (1956) 1850 45 83 115 151 318 1030 1130 3110 5920
2026-04-12 16:00 6.37 177 72000 (1994) 8 (1956) 1850 45 83 115 151 318 1030 1130 3110 5920
2026-04-12 15:30 6.34 168 72000 (1994) 8 (1956) 1850 45 83 115 151 318 1030 1130 3110 5920
2026-04-12 15:00 6.37 177 72000 (1994) 8 (1956) 1850 45 83 115 151 318 1030 1130 3110 5920
2026-04-12 14:30 6.34 168 72000 (1994) 8 (1956) 1850 45 83 115 151 318 1030 1130 3110 5920
2026-04-12 14:00 6.31 159 72000 (1994) 8 (1956) 1850 45 83 115 151 318 1030 1130 3110 5920
2026-04-12 13:30 6.30 157 72000 (1994) 8 (1956) 1850 45 83 115 151 318 1030 1130 3110 5920
2026-04-12 13:00 6.34 168 72000 (1994) 8 (1956) 1850 45 83 115 151 318 1030 1130 3110 5920
2026-04-12 12:30 6.32 162 72000 (1994) 8 (1956) 1850 45 83 115 151 318 1030 1130 3110 5920
2026-04-12 12:00 6.37 177 72000 (1994) 8 (1956) 1850 45 83 115 151 318 1030 1130 3110 5920
2026-04-12 11:30 6.38 180 72000 (1994) 8 (1956) 1850 45 83 115 151 318 1030 1130 3110 5920
2026-04-12 11:00 6.38 180 72000 (1994) 8 (1956) 1850 45 83 115 151 318 1030 1130 3110 5920
2026-04-12 10:30 6.38 180 72000 (1994) 8 (1956) 1850 45 83 115 151 318 1030 1130 3110 5920
2026-04-12 10:00 6.34 168 72000 (1994) 8 (1956) 1850 45 83 115 151 318 1030 1130 3110 5920
2026-04-12 09:30 6.37 177 72000 (1994) 8 (1956) 1850 45 83 115 151 318 1030 1130 3110 5920
2026-04-12 09:00 6.39 183 72000 (1994) 8 (1956) 1850 45 83 115 151 318 1030 1130 3110 5920
2026-04-12 08:30 6.40 186 72000 (1994) 8 (1956) 1850 45 83 115 151 318 1030 1130 3110 5920
2026-04-12 08:00 6.40 186 72000 (1994) 8 (1956) 1850 45 83 115 151 318 1030 1130 3110 5920
2026-04-12 07:30 6.40 186 72000 (1994) 8 (1956) 1850 45 83 115 151 318 1030 1130 3110 5920
2026-04-12 07:00 6.41 189 72000 (1994) 8 (1956) 1850 45 83 115 151 318 1030 1130 3110 5920
2026-04-12 06:30 6.41 189 72000 (1994) 8 (1956) 1850 45 83 115 151 318 1030 1130 3110 5920
2026-04-12 06:00 6.41 189 72000 (1994) 8 (1956) 1850 45 83 115 151 318 1030 1130 3110 5920
2026-04-12 05:30 6.41 189 72000 (1994) 8 (1956) 1850 45 83 115 151 318 1030 1130 3110 5920
2026-04-12 05:00 6.41 189 72000 (1994) 8 (1956) 1850 45 83 115 151 318 1030 1130 3110 5920
2026-04-12 04:30 6.41 189 72000 (1994) 8 (1956) 1850 45 83 115 151 318 1030 1130 3110 5920
2026-04-12 04:00 6.41 189 72000 (1994) 8 (1956) 1850 45 83 115 151 318 1030 1130 3110 5920
2026-04-12 03:30 6.41 189 72000 (1994) 8 (1956) 1850 45 83 115 151 318 1030 1130 3110 5920
2026-04-12 03:00 6.42 192 72000 (1994) 8 (1956) 1850 45 83 115 151 318 1030 1130 3110 5920
2026-04-12 02:30 6.42 192 72000 (1994) 8 (1956) 1850 45 83 115 151 318 1030 1130 3110 5920
2026-04-12 02:00 6.42 192 72000 (1994) 8 (1956) 1850 45 83 115 151 318 1030 1130 3110 5920
2026-04-12 01:30 6.42 192 72000 (1994) 8 (1956) 1850 45 83 115 151 318 1030 1130 3110 5920
2026-04-12 01:00 6.42 192 72000 (1994) 8 (1956) 1850 45 83 115 151 318 1030 1130 3110 5920
2026-04-12 00:30 6.42 192 72000 (1994) 8 (1956) 1850 45 83 115 151 318 1030 1130 3110 5920
2026-04-12 00:00 6.42 192 72000 (1994) 8 (1956) 1850 45 83 115 151 318 1030 1130 3110 5920
2026-04-11 23:30 6.42 192 72000 (1994) 8 (1956) 1850 45 83 115 151 318 1030 1130 3110 5920
2026-04-11 23:00 6.43 195 72000 (1994) 8 (1956) 1850 45 83 115 151 318 1030 1130 3110 5920
2026-04-11 22:30 6.43 195 29900 (1994) 9 (1956) 1930 42 86 120 134 284 928 1330 4580 12900
2026-04-11 22:00 6.43 195 29900 (1994) 9 (1956) 1930 42 86 120 134 284 928 1330 4580 12900
2026-04-11 21:30 6.43 195 29900 (1994) 9 (1956) 1930 42 86 120 134 284 928 1330 4580 12900
2026-04-11 21:00 6.43 195 29900 (1994) 9 (1956) 1930 42 86 120 134 284 928 1330 4580 12900
2026-04-11 20:30 6.43 195 29900 (1994) 9 (1956) 1930 42 86 120 134 284 928 1330 4580 12900
2026-04-11 20:00 6.44 199 29900 (1994) 9 (1956) 1930 42 86 120 134 284 928 1330 4580 12900
2026-04-11 19:30 6.44 199 29900 (1994) 9 (1956) 1930 42 86 120 134 284 928 1330 4580 12900
2026-04-11 19:00 6.44 199 29900 (1994) 9 (1956) 1930 42 86 120 134 284 928 1330 4580 12900
2026-04-11 18:30 6.44 199 29900 (1994) 9 (1956) 1930 42 86 120 134 284 928 1330 4580 12900
2026-04-11 18:00 6.44 199 29900 (1994) 9 (1956) 1930 42 86 120 134 284 928 1330 4580 12900
2026-04-11 17:30 6.44 199 29900 (1994) 9 (1956) 1930 42 86 120 134 284 928 1330 4580 12900
2026-04-11 17:00 6.45 202 29900 (1994) 9 (1956) 1930 42 86 120 134 284 928 1330 4580 12900
2026-04-11 16:30 6.45 202 29900 (1994) 9 (1956) 1930 42 86 120 134 284 928 1330 4580 12900
2026-04-11 16:00 6.41 189 29900 (1994) 9 (1956) 1930 42 86 120 134 284 928 1330 4580 12900
2026-04-11 15:30 6.44 199 29900 (1994) 9 (1956) 1930 42 86 120 134 284 928 1330 4580 12900
2026-04-11 15:00 6.46 205 29900 (1994) 9 (1956) 1930 42 86 120 134 284 928 1330 4580 12900
2026-04-11 14:30 6.46 205 29900 (1994) 9 (1956) 1930 42 86 120 134 284 928 1330 4580 12900
2026-04-11 14:00 6.43 195 29900 (1994) 9 (1956) 1930 42 86 120 134 284 928 1330 4580 12900
2026-04-11 13:30 6.44 199 29900 (1994) 9 (1956) 1930 42 86 120 134 284 928 1330 4580 12900
2026-04-11 13:00 6.45 202 29900 (1994) 9 (1956) 1930 42 86 120 134 284 928 1330 4580 12900
2026-04-11 12:30 6.43 195 29900 (1994) 9 (1956) 1930 42 86 120 134 284 928 1330 4580 12900
2026-04-11 12:00 6.43 195 29900 (1994) 9 (1956) 1930 42 86 120 134 284 928 1330 4580 12900
2026-04-11 11:30 6.39 183 29900 (1994) 9 (1956) 1930 42 86 120 134 284 928 1330 4580 12900
2026-04-11 11:00 6.47 208 29900 (1994) 9 (1956) 1930 42 86 120 134 284 928 1330 4580 12900
2026-04-11 10:30 6.43 195 29900 (1994) 9 (1956) 1930 42 86 120 134 284 928 1330 4580 12900
2026-04-11 10:00 6.46 205 29900 (1994) 9 (1956) 1930 42 86 120 134 284 928 1330 4580 12900
2026-04-11 09:30 6.48 212 29900 (1994) 9 (1956) 1930 42 86 120 134 284 928 1330 4580 12900
2026-04-11 09:00 6.45 202 29900 (1994) 9 (1956) 1930 42 86 120 134 284 928 1330 4580 12900
2026-04-11 08:30 6.42 192 29900 (1994) 9 (1956) 1930 42 86 120 134 284 928 1330 4580 12900
2026-04-11 08:00 6.49 215 29900 (1994) 9 (1956) 1930 42 86 120 134 284 928 1330 4580 12900
2026-04-11 07:30 6.48 212 29900 (1994) 9 (1956) 1930 42 86 120 134 284 928 1330 4580 12900
2026-04-11 07:00 6.50 219 29900 (1994) 9 (1956) 1930 42 86 120 134 284 928 1330 4580 12900
2026-04-11 06:30 6.50 219 29900 (1994) 9 (1956) 1930 42 86 120 134 284 928 1330 4580 12900
2026-04-11 06:00 6.50 219 29900 (1994) 9 (1956) 1930 42 86 120 134 284 928 1330 4580 12900
2026-04-11 05:30 6.50 219 29900 (1994) 9 (1956) 1930 42 86 120 134 284 928 1330 4580 12900
2026-04-11 05:00 6.50 219 29900 (1994) 9 (1956) 1930 42 86 120 134 284 928 1330 4580 12900
2026-04-11 04:30 6.51 222 29900 (1994) 9 (1956) 1930 42 86 120 134 284 928 1330 4580 12900
2026-04-11 04:00 6.51 222 29900 (1994) 9 (1956) 1930 42 86 120 134 284 928 1330 4580 12900
2026-04-11 03:30 6.51 222 29900 (1994) 9 (1956) 1930 42 86 120 134 284 928 1330 4580 12900
2026-04-11 03:00 6.51 222 29900 (1994) 9 (1956) 1930 42 86 120 134 284 928 1330 4580 12900
2026-04-11 02:30 6.51 222 29900 (1994) 9 (1956) 1930 42 86 120 134 284 928 1330 4580 12900
2026-04-11 02:00 6.51 222 29900 (1994) 9 (1956) 1930 42 86 120 134 284 928 1330 4580 12900
2026-04-11 01:30 6.52 226 29900 (1994) 9 (1956) 1930 42 86 120 134 284 928 1330 4580 12900
2026-04-11 01:00 6.52 226 29900 (1994) 9 (1956) 1930 42 86 120 134 284 928 1330 4580 12900
2026-04-11 00:30 6.52 226 29900 (1994) 9 (1956) 1930 42 86 120 134 284 928 1330 4580 12900
2026-04-11 00:00 6.52 226 29900 (1994) 9 (1956) 1930 42 86 120 134 284 928 1330 4580 12900
2026-04-10 23:30 6.53 229 29900 (1994) 9 (1956) 1930 42 86 120 134 284 928 1330 4580 12900
2026-04-10 23:00 6.53 229 29900 (1994) 9 (1956) 1930 42 86 120 134 284 928 1330 4580 12900
2026-04-10 22:30 6.53 229 10000 (1994) 5 (1954) 1110 41 80 126 152 293 694 821 3180 7520
2026-04-10 22:00 6.53 229 10000 (1994) 5 (1954) 1110 41 80 126 152 293 694 821 3180 7520
2026-04-10 21:30 6.54 233 10000 (1994) 5 (1954) 1110 41 80 126 152 293 694 821 3180 7520
2026-04-10 21:00 6.54 233 10000 (1994) 5 (1954) 1110 41 80 126 152 293 694 821 3180 7520
2026-04-10 20:30 6.54 233 10000 (1994) 5 (1954) 1110 41 80 126 152 293 694 821 3180 7520
2026-04-10 20:00 6.54 233 10000 (1994) 5 (1954) 1110 41 80 126 152 293 694 821 3180 7520
2026-04-10 19:30 6.54 233 10000 (1994) 5 (1954) 1110 41 80 126 152 293 694 821 3180 7520
2026-04-10 19:00 6.55 237 10000 (1994) 5 (1954) 1110 41 80 126 152 293 694 821 3180 7520
2026-04-10 18:30 6.55 237 10000 (1994) 5 (1954) 1110 41 80 126 152 293 694 821 3180 7520
2026-04-10 18:00 6.55 237 10000 (1994) 5 (1954) 1110 41 80 126 152 293 694 821 3180 7520
2026-04-10 17:30 6.56 240 10000 (1994) 5 (1954) 1110 41 80 126 152 293 694 821 3180 7520
2026-04-10 17:00 6.56 240 10000 (1994) 5 (1954) 1110 41 80 126 152 293 694 821 3180 7520
2026-04-10 16:30 6.56 240 10000 (1994) 5 (1954) 1110 41 80 126 152 293 694 821 3180 7520
2026-04-10 16:00 6.56 240 10000 (1994) 5 (1954) 1110 41 80 126 152 293 694 821 3180 7520
2026-04-10 15:30 6.57 244 10000 (1994) 5 (1954) 1110 41 80 126 152 293 694 821 3180 7520
2026-04-10 15:00 6.57 244 10000 (1994) 5 (1954) 1110 41 80 126 152 293 694 821 3180 7520
2026-04-10 14:30 6.57 244 10000 (1994) 5 (1954) 1110 41 80 126 152 293 694 821 3180 7520
2026-04-10 14:00 6.57 244 10000 (1994) 5 (1954) 1110 41 80 126 152 293 694 821 3180 7520
2026-04-10 13:30 6.58 248 10000 (1994) 5 (1954) 1110 41 80 126 152 293 694 821 3180 7520
2026-04-10 13:00 6.58 248 10000 (1994) 5 (1954) 1110 41 80 126 152 293 694 821 3180 7520
2026-04-10 12:30 6.58 248 10000 (1994) 5 (1954) 1110 41 80 126 152 293 694 821 3180 7520
2026-04-10 12:00 6.58 248 10000 (1994) 5 (1954) 1110 41 80 126 152 293 694 821 3180 7520
2026-04-10 11:30 6.59 251 10000 (1994) 5 (1954) 1110 41 80 126 152 293 694 821 3180 7520
2026-04-10 11:00 6.59 251 10000 (1994) 5 (1954) 1110 41 80 126 152 293 694 821 3180 7520
2026-04-10 10:30 6.59 251 10000 (1994) 5 (1954) 1110 41 80 126 152 293 694 821 3180 7520
2026-04-10 10:00 6.59 251 10000 (1994) 5 (1954) 1110 41 80 126 152 293 694 821 3180 7520
2026-04-10 09:30 6.59 251 10000 (1994) 5 (1954) 1110 41 80 126 152 293 694 821 3180 7520
2026-04-10 09:00 6.60 255 10000 (1994) 5 (1954) 1110 41 80 126 152 293 694 821 3180 7520
2026-04-10 08:30 6.60 255 10000 (1994) 5 (1954) 1110 41 80 126 152 293 694 821 3180 7520
2026-04-10 08:00 6.60 255 10000 (1994) 5 (1954) 1110 41 80 126 152 293 694 821 3180 7520
2026-04-10 07:30 6.61 259 10000 (1994) 5 (1954) 1110 41 80 126 152 293 694 821 3180 7520
2026-04-10 07:00 6.61 259 10000 (1994) 5 (1954) 1110 41 80 126 152 293 694 821 3180 7520
2026-04-10 06:30 6.61 259 10000 (1994) 5 (1954) 1110 41 80 126 152 293 694 821 3180 7520
2026-04-10 06:00 6.61 259 10000 (1994) 5 (1954) 1110 41 80 126 152 293 694 821 3180 7520
2026-04-10 05:30 6.62 263 10000 (1994) 5 (1954) 1110 41 80 126 152 293 694 821 3180 7520
2026-04-10 05:00 6.62 263 10000 (1994) 5 (1954) 1110 41 80 126 152 293 694 821 3180 7520
2026-04-10 04:30 6.62 263 10000 (1994) 5 (1954) 1110 41 80 126 152 293 694 821 3180 7520
2026-04-10 04:00 6.63 267 10000 (1994) 5 (1954) 1110 41 80 126 152 293 694 821 3180 7520
2026-04-10 03:30 6.63 267 10000 (1994) 5 (1954) 1110 41 80 126 152 293 694 821 3180 7520
2026-04-10 03:00 6.63 267 10000 (1994) 5 (1954) 1110 41 80 126 152 293 694 821 3180 7520
2026-04-10 02:30 6.63 267 10000 (1994) 5 (1954) 1110 41 80 126 152 293 694 821 3180 7520
2026-04-10 02:00 6.64 270 10000 (1994) 5 (1954) 1110 41 80 126 152 293 694 821 3180 7520
2026-04-10 01:30 6.64 270 10000 (1994) 5 (1954) 1110 41 80 126 152 293 694 821 3180 7520
2026-04-10 01:00 6.65 273 10000 (1994) 5 (1954) 1110 41 80 126 152 293 694 821 3180 7520
2026-04-10 00:30 6.65 273 10000 (1994) 5 (1954) 1110 41 80 126 152 293 694 821 3180 7520
2026-04-10 00:00 6.65 273 10000 (1994) 5 (1954) 1110 41 80 126 152 293 694 821 3180 7520
2026-04-09 23:30 6.66 276 10000 (1994) 5 (1954) 1110 41 80 126 152 293 694 821 3180 7520
2026-04-09 23:00 6.66 276 10000 (1994) 5 (1954) 1110 41 80 126 152 293 694 821 3180 7520
2026-04-09 22:30 6.66 276 17600 (1922) 3 (1954) 1010 42 77 131 149 291 614 740 1720 5760
2026-04-09 22:00 6.66 276 17600 (1922) 3 (1954) 1010 42 77 131 149 291 614 740 1720 5760
2026-04-09 21:30 6.67 280 17600 (1922) 3 (1954) 1010 42 77 131 149 291 614 740 1720 5760
2026-04-09 21:00 6.67 280 17600 (1922) 3 (1954) 1010 42 77 131 149 291 614 740 1720 5760
2026-04-09 20:30 6.67 280 17600 (1922) 3 (1954) 1010 42 77 131 149 291 614 740 1720 5760
2026-04-09 20:00 6.68 283 17600 (1922) 3 (1954) 1010 42 77 131 149 291 614 740 1720 5760
2026-04-09 19:30 6.68 283 17600 (1922) 3 (1954) 1010 42 77 131 149 291 614 740 1720 5760
2026-04-09 19:00 6.69 286 17600 (1922) 3 (1954) 1010 42 77 131 149 291 614 740 1720 5760
2026-04-09 18:30 6.69 286 17600 (1922) 3 (1954) 1010 42 77 131 149 291 614 740 1720 5760
2026-04-09 18:00 6.69 286 17600 (1922) 3 (1954) 1010 42 77 131 149 291 614 740 1720 5760
2026-04-09 17:30 6.69 286 17600 (1922) 3 (1954) 1010 42 77 131 149 291 614 740 1720 5760
2026-04-09 17:00 6.70 289 17600 (1922) 3 (1954) 1010 42 77 131 149 291 614 740 1720 5760
2026-04-09 16:30 6.69 286 17600 (1922) 3 (1954) 1010 42 77 131 149 291 614 740 1720 5760
2026-04-09 16:00 6.71 292 17600 (1922) 3 (1954) 1010 42 77 131 149 291 614 740 1720 5760
2026-04-09 15:30 6.71 292 17600 (1922) 3 (1954) 1010 42 77 131 149 291 614 740 1720 5760
2026-04-09 15:00 6.71 292 17600 (1922) 3 (1954) 1010 42 77 131 149 291 614 740 1720 5760
2026-04-09 14:30 6.72 296 17600 (1922) 3 (1954) 1010 42 77 131 149 291 614 740 1720 5760
2026-04-09 14:00 6.73 299 17600 (1922) 3 (1954) 1010 42 77 131 149 291 614 740 1720 5760
2026-04-09 13:30 6.70 289 17600 (1922) 3 (1954) 1010 42 77 131 149 291 614 740 1720 5760
2026-04-09 13:00 6.66 276 17600 (1922) 3 (1954) 1010 42 77 131 149 291 614 740 1720 5760
2026-04-09 12:30 6.67 280 17600 (1922) 3 (1954) 1010 42 77 131 149 291 614 740 1720 5760
2026-04-09 12:00 6.73 299 17600 (1922) 3 (1954) 1010 42 77 131 149 291 614 740 1720 5760
2026-04-09 11:30 6.70 289 17600 (1922) 3 (1954) 1010 42 77 131 149 291 614 740 1720 5760
2026-04-09 11:00 6.74 302 17600 (1922) 3 (1954) 1010 42 77 131 149 291 614 740 1720 5760
2026-04-09 10:30 6.75 305 17600 (1922) 3 (1954) 1010 42 77 131 149 291 614 740 1720 5760
2026-04-09 10:00 6.75 305 17600 (1922) 3 (1954) 1010 42 77 131 149 291 614 740 1720 5760
2026-04-09 09:30 6.75 305 17600 (1922) 3 (1954) 1010 42 77 131 149 291 614 740 1720 5760
2026-04-09 09:00 6.76 309 17600 (1922) 3 (1954) 1010 42 77 131 149 291 614 740 1720 5760
2026-04-09 08:30 6.76 309 17600 (1922) 3 (1954) 1010 42 77 131 149 291 614 740 1720 5760
2026-04-09 08:00 6.77 312 17600 (1922) 3 (1954) 1010 42 77 131 149 291 614 740 1720 5760
2026-04-09 07:30 6.77 312 17600 (1922) 3 (1954) 1010 42 77 131 149 291 614 740 1720 5760
2026-04-09 07:00 6.78 315 17600 (1922) 3 (1954) 1010 42 77 131 149 291 614 740 1720 5760
2026-04-09 06:30 6.78 315 17600 (1922) 3 (1954) 1010 42 77 131 149 291 614 740 1720 5760
2026-04-09 06:00 6.79 319 17600 (1922) 3 (1954) 1010 42 77 131 149 291 614 740 1720 5760
2026-04-09 05:30 6.79 319 17600 (1922) 3 (1954) 1010 42 77 131 149 291 614 740 1720 5760
2026-04-09 05:00 6.80 322 17600 (1922) 3 (1954) 1010 42 77 131 149 291 614 740 1720 5760
2026-04-09 04:30 6.80 322 17600 (1922) 3 (1954) 1010 42 77 131 149 291 614 740 1720 5760
2026-04-09 04:00 6.80 322 17600 (1922) 3 (1954) 1010 42 77 131 149 291 614 740 1720 5760
2026-04-09 03:30 6.81 326 17600 (1922) 3 (1954) 1010 42 77 131 149 291 614 740 1720 5760
2026-04-09 03:00 6.81 326 17600 (1922) 3 (1954) 1010 42 77 131 149 291 614 740 1720 5760
2026-04-09 02:30 6.82 329 17600 (1922) 3 (1954) 1010 42 77 131 149 291 614 740 1720 5760
2026-04-09 02:00 6.82 329 17600 (1922) 3 (1954) 1010 42 77 131 149 291 614 740 1720 5760
2026-04-09 01:30 6.83 333 17600 (1922) 3 (1954) 1010 42 77 131 149 291 614 740 1720 5760
2026-04-09 01:00 6.83 333 17600 (1922) 3 (1954) 1010 42 77 131 149 291 614 740 1720 5760
2026-04-09 00:30 6.84 336 17600 (1922) 3 (1954) 1010 42 77 131 149 291 614 740 1720 5760
2026-04-09 00:00 6.84 336 17600 (1922) 3 (1954) 1010 42 77 131 149 291 614 740 1720 5760
2026-04-08 23:30 6.84 336 17600 (1922) 3 (1954) 1010 42 77 131 149 291 614 740 1720 5760
2026-04-08 23:00 6.84 336 17600 (1922) 3 (1954) 1010 42 77 131 149 291 614 740 1720 5760
2026-04-08 22:30 6.85 340 22900 (1922) 4 (1954) 1180 45 79 139 175 336 790 913 1730 7260
2026-04-08 22:00 6.86 343 22900 (1922) 4 (1954) 1180 45 79 139 175 336 790 913 1730 7260
2026-04-08 21:30 6.86 343 22900 (1922) 4 (1954) 1180 45 79 139 175 336 790 913 1730 7260
2026-04-08 21:00 6.87 347 22900 (1922) 4 (1954) 1180 45 79 139 175 336 790 913 1730 7260
2026-04-08 20:30 6.87 347 22900 (1922) 4 (1954) 1180 45 79 139 175 336 790 913 1730 7260
2026-04-08 20:00 6.88 350 22900 (1922) 4 (1954) 1180 45 79 139 175 336 790 913 1730 7260
2026-04-08 19:30 6.88 350 22900 (1922) 4 (1954) 1180 45 79 139 175 336 790 913 1730 7260
2026-04-08 19:00 6.88 350 22900 (1922) 4 (1954) 1180 45 79 139 175 336 790 913 1730 7260
2026-04-08 18:30 6.84 336 22900 (1922) 4 (1954) 1180 45 79 139 175 336 790 913 1730 7260
2026-04-08 18:00 6.89 354 22900 (1922) 4 (1954) 1180 45 79 139 175 336 790 913 1730 7260
2026-04-08 17:30 6.88 350 22900 (1922) 4 (1954) 1180 45 79 139 175 336 790 913 1730 7260
2026-04-08 17:00 6.91 361 22900 (1922) 4 (1954) 1180 45 79 139 175 336 790 913 1730 7260
2026-04-08 16:30 6.90 358 22900 (1922) 4 (1954) 1180 45 79 139 175 336 790 913 1730 7260
2026-04-08 16:00 6.89 354 22900 (1922) 4 (1954) 1180 45 79 139 175 336 790 913 1730 7260
2026-04-08 15:30 6.90 358 22900 (1922) 4 (1954) 1180 45 79 139 175 336 790 913 1730 7260
2026-04-08 15:00 6.88 350 22900 (1922) 4 (1954) 1180 45 79 139 175 336 790 913 1730 7260
2026-04-08 14:30 6.93 369 22900 (1922) 4 (1954) 1180 45 79 139 175 336 790 913 1730 7260
2026-04-08 14:00 6.92 365 22900 (1922) 4 (1954) 1180 45 79 139 175 336 790 913 1730 7260
2026-04-08 13:30 6.94 372 22900 (1922) 4 (1954) 1180 45 79 139 175 336 790 913 1730 7260
2026-04-08 13:00 6.95 376 22900 (1922) 4 (1954) 1180 45 79 139 175 336 790 913 1730 7260
2026-04-08 12:30 6.96 380 22900 (1922) 4 (1954) 1180 45 79 139 175 336 790 913 1730 7260
2026-04-08 12:00 6.97 384 22900 (1922) 4 (1954) 1180 45 79 139 175 336 790 913 1730 7260
2026-04-08 11:30 6.98 387 22900 (1922) 4 (1954) 1180 45 79 139 175 336 790 913 1730 7260
2026-04-08 11:00 6.98 387 22900 (1922) 4 (1954) 1180 45 79 139 175 336 790 913 1730 7260
2026-04-08 10:30 6.98 387 22900 (1922) 4 (1954) 1180 45 79 139 175 336 790 913 1730 7260
2026-04-08 10:00 6.99 391 22900 (1922) 4 (1954) 1180 45 79 139 175 336 790 913 1730 7260
2026-04-08 09:30 7.00 395 22900 (1922) 4 (1954) 1180 45 79 139 175 336 790 913 1730 7260
2026-04-08 09:00 7.00 395 22900 (1922) 4 (1954) 1180 45 79 139 175 336 790 913 1730 7260
2026-04-08 08:30 7.01 399 22900 (1922) 4 (1954) 1180 45 79 139 175 336 790 913 1730 7260
2026-04-08 08:00 7.02 403 22900 (1922) 4 (1954) 1180 45 79 139 175 336 790 913 1730 7260
2026-04-08 07:30 7.03 407 22900 (1922) 4 (1954) 1180 45 79 139 175 336 790 913 1730 7260
2026-04-08 07:00 7.03 407 22900 (1922) 4 (1954) 1180 45 79 139 175 336 790 913 1730 7260
2026-04-08 06:30 7.04 411 22900 (1922) 4 (1954) 1180 45 79 139 175 336 790 913 1730 7260
2026-04-08 06:00 7.05 415 22900 (1922) 4 (1954) 1180 45 79 139 175 336 790 913 1730 7260
2026-04-08 05:30 7.05 415 22900 (1922) 4 (1954) 1180 45 79 139 175 336 790 913 1730 7260
2026-04-08 05:00 7.06 419 22900 (1922) 4 (1954) 1180 45 79 139 175 336 790 913 1730 7260
2026-04-08 04:30 7.06 419 22900 (1922) 4 (1954) 1180 45 79 139 175 336 790 913 1730 7260
2026-04-08 04:00 7.07 423 22900 (1922) 4 (1954) 1180 45 79 139 175 336 790 913 1730 7260
2026-04-08 03:30 7.08 427 22900 (1922) 4 (1954) 1180 45 79 139 175 336 790 913 1730 7260
2026-04-08 03:00 7.08 427 22900 (1922) 4 (1954) 1180 45 79 139 175 336 790 913 1730 7260
2026-04-08 02:30 7.09 431 22900 (1922) 4 (1954) 1180 45 79 139 175 336 790 913 1730 7260
2026-04-08 02:00 7.10 435 22900 (1922) 4 (1954) 1180 45 79 139 175 336 790 913 1730 7260
2026-04-08 01:30 7.10 435 22900 (1922) 4 (1954) 1180 45 79 139 175 336 790 913 1730 7260
2026-04-08 01:00 7.11 439 22900 (1922) 4 (1954) 1180 45 79 139 175 336 790 913 1730 7260
2026-04-08 00:30 7.12 443 22900 (1922) 4 (1954) 1180 45 79 139 175 336 790 913 1730 7260
2026-04-08 00:00 7.13 447 22900 (1922) 4 (1954) 1180 45 79 139 175 336 790 913 1730 7260
2026-04-07 23:30 7.13 447 22900 (1922) 4 (1954) 1180 45 79 139 175 336 790 913 1730 7260
2026-04-07 23:00 7.14 451 22900 (1922) 4 (1954) 1180 45 79 139 175 336 790 913 1730 7260
2026-04-07 22:30 7.08 427 31600 (1926) 4 (1954) 1100 44 80 134 176 370 783 1120 1960 3620
2026-04-07 22:00 7.15 456 31600 (1926) 4 (1954) 1100 44 80 134 176 370 783 1120 1960 3620
2026-04-07 21:30 7.14 451 31600 (1926) 4 (1954) 1100 44 80 134 176 370 783 1120 1960 3620
2026-04-07 21:00 7.17 464 31600 (1926) 4 (1954) 1100 44 80 134 176 370 783 1120 1960 3620
2026-04-07 20:30 7.18 468 31600 (1926) 4 (1954) 1100 44 80 134 176 370 783 1120 1960 3620
2026-04-07 20:00 7.18 468 31600 (1926) 4 (1954) 1100 44 80 134 176 370 783 1120 1960 3620
2026-04-07 19:30 7.11 439 31600 (1926) 4 (1954) 1100 44 80 134 176 370 783 1120 1960 3620
2026-04-07 19:00 7.20 477 31600 (1926) 4 (1954) 1100 44 80 134 176 370 783 1120 1960 3620
2026-04-07 18:30 7.17 464 31600 (1926) 4 (1954) 1100 44 80 134 176 370 783 1120 1960 3620
2026-04-07 18:00 7.21 481 31600 (1926) 4 (1954) 1100 44 80 134 176 370 783 1120 1960 3620
2026-04-07 17:30 7.16 460 31600 (1926) 4 (1954) 1100 44 80 134 176 370 783 1120 1960 3620
2026-04-07 17:00 7.17 464 31600 (1926) 4 (1954) 1100 44 80 134 176 370 783 1120 1960 3620
2026-04-07 16:30 7.23 490 31600 (1926) 4 (1954) 1100 44 80 134 176 370 783 1120 1960 3620
2026-04-07 16:00 7.24 494 31600 (1926) 4 (1954) 1100 44 80 134 176 370 783 1120 1960 3620
2026-04-07 15:30 7.21 481 31600 (1926) 4 (1954) 1100 44 80 134 176 370 783 1120 1960 3620
2026-04-07 15:00 7.23 490 31600 (1926) 4 (1954) 1100 44 80 134 176 370 783 1120 1960 3620
2026-04-07 14:30 7.28 512 31600 (1926) 4 (1954) 1100 44 80 134 176 370 783 1120 1960 3620
2026-04-07 14:00 7.25 499 31600 (1926) 4 (1954) 1100 44 80 134 176 370 783 1120 1960 3620
2026-04-07 13:30 7.29 517 31600 (1926) 4 (1954) 1100 44 80 134 176 370 783 1120 1960 3620
2026-04-07 13:00 7.29 517 31600 (1926) 4 (1954) 1100 44 80 134 176 370 783 1120 1960 3620
2026-04-07 12:30 7.25 499 31600 (1926) 4 (1954) 1100 44 80 134 176 370 783 1120 1960 3620
2026-04-07 12:00 7.33 535 31600 (1926) 4 (1954) 1100 44 80 134 176 370 783 1120 1960 3620
2026-04-07 11:30 7.30 521 31600 (1926) 4 (1954) 1100 44 80 134 176 370 783 1120 1960 3620
2026-04-07 11:00 7.32 531 31600 (1926) 4 (1954) 1100 44 80 134 176 370 783 1120 1960 3620
2026-04-07 10:30 7.26 503 31600 (1926) 4 (1954) 1100 44 80 134 176 370 783 1120 1960 3620
2026-04-07 10:00 7.32 531 31600 (1926) 4 (1954) 1100 44 80 134 176 370 783 1120 1960 3620
2026-04-07 09:30 7.37 554 31600 (1926) 4 (1954) 1100 44 80 134 176 370 783 1120 1960 3620
2026-04-07 09:00 7.32 531 31600 (1926) 4 (1954) 1100 44 80 134 176 370 783 1120 1960 3620
2026-04-07 08:30 7.39 563 31600 (1926) 4 (1954) 1100 44 80 134 176 370 783 1120 1960 3620
2026-04-07 08:00 7.39 563 31600 (1926) 4 (1954) 1100 44 80 134 176 370 783 1120 1960 3620
2026-04-07 07:30 7.42 578 31600 (1926) 4 (1954) 1100 44 80 134 176 370 783 1120 1960 3620
2026-04-07 07:00 7.38 559 31600 (1926) 4 (1954) 1100 44 80 134 176 370 783 1120 1960 3620
2026-04-07 06:30 7.45 592 31600 (1926) 4 (1954) 1100 44 80 134 176 370 783 1120 1960 3620
2026-04-07 06:00 7.44 588 31600 (1926) 4 (1954) 1100 44 80 134 176 370 783 1120 1960 3620
2026-04-07 05:30 7.48 607 31600 (1926) 4 (1954) 1100 44 80 134 176 370 783 1120 1960 3620
2026-04-07 05:00 7.49 612 31600 (1926) 4 (1954) 1100 44 80 134 176 370 783 1120 1960 3620
2026-04-07 04:30 7.50 617 31600 (1926) 4 (1954) 1100 44 80 134 176 370 783 1120 1960 3620
2026-04-07 04:00 7.52 627 31600 (1926) 4 (1954) 1100 44 80 134 176 370 783 1120 1960 3620
2026-04-07 03:30 7.53 633 31600 (1926) 4 (1954) 1100 44 80 134 176 370 783 1120 1960 3620
2026-04-07 03:00 7.55 643 31600 (1926) 4 (1954) 1100 44 80 134 176 370 783 1120 1960 3620
2026-04-07 02:30 7.56 648 31600 (1926) 4 (1954) 1100 44 80 134 176 370 783 1120 1960 3620
2026-04-07 02:00 7.58 658 31600 (1926) 4 (1954) 1100 44 80 134 176 370 783 1120 1960 3620
2026-04-07 01:30 7.59 664 31600 (1926) 4 (1954) 1100 44 80 134 176 370 783 1120 1960 3620
2026-04-07 01:00 7.61 674 31600 (1926) 4 (1954) 1100 44 80 134 176 370 783 1120 1960 3620
2026-04-07 00:30 7.62 680 31600 (1926) 4 (1954) 1100 44 80 134 176 370 783 1120 1960 3620
2026-04-07 00:00 7.64 690 31600 (1926) 4 (1954) 1100 44 80 134 176 370 783 1120 1960 3620
2026-04-06 23:30 7.65 696 31600 (1926) 4 (1954) 1100 44 80 134 176 370 783 1120 1960 3620
2026-04-06 23:00 7.66 701 31600 (1926) 4 (1954) 1100 44 80 134 176 370 783 1120 1960 3620
2026-04-06 22:30 7.69 717 27500 (1928) 4 (1954) 1410 44 95 142 170 384 906 1320 4510 6580
2026-04-06 22:00 7.70 723 27500 (1928) 4 (1954) 1410 44 95 142 170 384 906 1320 4510 6580
2026-04-06 21:30 7.72 734 27500 (1928) 4 (1954) 1410 44 95 142 170 384 906 1320 4510 6580
2026-04-06 21:00 7.74 745 27500 (1928) 4 (1954) 1410 44 95 142 170 384 906 1320 4510 6580
2026-04-06 20:30 7.74 745 27500 (1928) 4 (1954) 1410 44 95 142 170 384 906 1320 4510 6580
2026-04-06 20:00 7.76 757 27500 (1928) 4 (1954) 1410 44 95 142 170 384 906 1320 4510 6580
2026-04-06 19:30 7.78 768 27500 (1928) 4 (1954) 1410 44 95 142 170 384 906 1320 4510 6580
2026-04-06 19:00 7.81 785 27500 (1928) 4 (1954) 1410 44 95 142 170 384 906 1320 4510 6580
2026-04-06 18:30 7.83 797 27500 (1928) 4 (1954) 1410 44 95 142 170 384 906 1320 4510 6580
2026-04-06 18:00 7.84 803 27500 (1928) 4 (1954) 1410 44 95 142 170 384 906 1320 4510 6580
2026-04-06 17:30 7.86 815 27500 (1928) 4 (1954) 1410 44 95 142 170 384 906 1320 4510 6580
2026-04-06 17:00 7.88 827 27500 (1928) 4 (1954) 1410 44 95 142 170 384 906 1320 4510 6580
2026-04-06 16:30 7.90 839 27500 (1928) 4 (1954) 1410 44 95 142 170 384 906 1320 4510 6580
2026-04-06 16:00 7.93 857 27500 (1928) 4 (1954) 1410 44 95 142 170 384 906 1320 4510 6580
2026-04-06 15:30 7.95 869 27500 (1928) 4 (1954) 1410 44 95 142 170 384 906 1320 4510 6580
2026-04-06 15:00 7.97 882 27500 (1928) 4 (1954) 1410 44 95 142 170 384 906 1320 4510 6580
2026-04-06 14:30 8.00 900 27500 (1928) 4 (1954) 1410 44 95 142 170 384 906 1320 4510 6580
2026-04-06 14:00 8.01 907 27500 (1928) 4 (1954) 1410 44 95 142 170 384 906 1320 4510 6580
2026-04-06 13:30 8.04 926 27500 (1928) 4 (1954) 1410 44 95 142 170 384 906 1320 4510 6580
2026-04-06 13:00 8.06 939 27500 (1928) 4 (1954) 1410 44 95 142 170 384 906 1320 4510 6580
2026-04-06 12:30 8.09 958 27500 (1928) 4 (1954) 1410 44 95 142 170 384 906 1320 4510 6580
2026-04-06 12:00 8.10 965 27500 (1928) 4 (1954) 1410 44 95 142 170 384 906 1320 4510 6580
2026-04-06 11:30 8.12 978 27500 (1928) 4 (1954) 1410 44 95 142 170 384 906 1320 4510 6580
2026-04-06 11:00 8.16 1000 27500 (1928) 4 (1954) 1410 44 95 142 170 384 906 1320 4510 6580
2026-04-06 10:30 8.18 1020 27500 (1928) 4 (1954) 1410 44 95 142 170 384 906 1320 4510 6580
2026-04-06 10:00 8.20 1030 27500 (1928) 4 (1954) 1410 44 95 142 170 384 906 1320 4510 6580
2026-04-06 09:30 8.23 1050 27500 (1928) 4 (1954) 1410 44 95 142 170 384 906 1320 4510 6580
2026-04-06 09:00 8.26 1070 27500 (1928) 4 (1954) 1410 44 95 142 170 384 906 1320 4510 6580
2026-04-06 08:30 8.29 1090 27500 (1928) 4 (1954) 1410 44 95 142 170 384 906 1320 4510 6580
2026-04-06 08:00 8.32 1120 27500 (1928) 4 (1954) 1410 44 95 142 170 384 906 1320 4510 6580
2026-04-06 07:30 8.35 1140 27500 (1928) 4 (1954) 1410 44 95 142 170 384 906 1320 4510 6580
2026-04-06 07:00 8.38 1160 27500 (1928) 4 (1954) 1410 44 95 142 170 384 906 1320 4510 6580
2026-04-06 06:30 8.40 1170 27500 (1928) 4 (1954) 1410 44 95 142 170 384 906 1320 4510 6580
2026-04-06 06:00 8.43 1200 27500 (1928) 4 (1954) 1410 44 95 142 170 384 906 1320 4510 6580
2026-04-06 05:30 8.45 1210 27500 (1928) 4 (1954) 1410 44 95 142 170 384 906 1320 4510 6580
2026-04-06 05:00 8.50 1250 27500 (1928) 4 (1954) 1410 44 95 142 170 384 906 1320 4510 6580
2026-04-06 04:30 8.53 1270 27500 (1928) 4 (1954) 1410 44 95 142 170 384 906 1320 4510 6580
2026-04-06 04:00 8.55 1290 27500 (1928) 4 (1954) 1410 44 95 142 170 384 906 1320 4510 6580
2026-04-06 03:30 8.59 1320 27500 (1928) 4 (1954) 1410 44 95 142 170 384 906 1320 4510 6580
2026-04-06 03:00 8.61 1330 27500 (1928) 4 (1954) 1410 44 95 142 170 384 906 1320 4510 6580
2026-04-06 02:30 8.64 1360 27500 (1928) 4 (1954) 1410 44 95 142 170 384 906 1320 4510 6580
2026-04-06 02:00 8.68 1390 27500 (1928) 4 (1954) 1410 44 95 142 170 384 906 1320 4510 6580
2026-04-06 01:30 8.72 1420 27500 (1928) 4 (1954) 1410 44 95 142 170 384 906 1320 4510 6580
2026-04-06 01:00 8.75 1450 27500 (1928) 4 (1954) 1410 44 95 142 170 384 906 1320 4510 6580
2026-04-06 00:30 8.78 1470 27500 (1928) 4 (1954) 1410 44 95 142 170 384 906 1320 4510 6580
2026-04-06 00:00 8.81 1500 27500 (1928) 4 (1954) 1410 44 95 142 170 384 906 1320 4510 6580
2026-04-05 23:30 8.84 1530 27500 (1928) 4 (1954) 1410 44 95 142 170 384 906 1320 4510 6580
2026-04-05 23:00 8.89 1570 27500 (1928) 4 (1954) 1410 44 95 142 170 384 906 1320 4510 6580
2026-04-05 22:30 8.94 1610 17200 (1928) 3 (1954) 1440 48 101 159 187 439 1500 2240 4430 6610
2026-04-05 22:00 8.98 1650 17200 (1928) 3 (1954) 1440 48 101 159 187 439 1500 2240 4430 6610
2026-04-05 21:30 9.00 1670 17200 (1928) 3 (1954) 1440 48 101 159 187 439 1500 2240 4430 6610
2026-04-05 21:00 9.05 1710 17200 (1928) 3 (1954) 1440 48 101 159 187 439 1500 2240 4430 6610
2026-04-05 20:30 9.09 1750 17200 (1928) 3 (1954) 1440 48 101 159 187 439 1500 2240 4430 6610
2026-04-05 20:00 9.12 1780 17200 (1928) 3 (1954) 1440 48 101 159 187 439 1500 2240 4430 6610
2026-04-05 19:30 9.15 1810 17200 (1928) 3 (1954) 1440 48 101 159 187 439 1500 2240 4430 6610
2026-04-05 19:00 9.21 1860 17200 (1928) 3 (1954) 1440 48 101 159 187 439 1500 2240 4430 6610
2026-04-05 18:30 9.27 1920 17200 (1928) 3 (1954) 1440 48 101 159 187 439 1500 2240 4430 6610
2026-04-05 18:00 9.31 1960 17200 (1928) 3 (1954) 1440 48 101 159 187 439 1500 2240 4430 6610
2026-04-05 17:30 9.37 2020 17200 (1928) 3 (1954) 1440 48 101 159 187 439 1500 2240 4430 6610
2026-04-05 17:00 9.41 2060 17200 (1928) 3 (1954) 1440 48 101 159 187 439 1500 2240 4430 6610
2026-04-05 16:30 9.47 2100 17200 (1928) 3 (1954) 1440 48 101 159 187 439 1500 2240 4430 6610
2026-04-05 16:00 9.52 2130 17200 (1928) 3 (1954) 1440 48 101 159 187 439 1500 2240 4430 6610
2026-04-05 15:30 9.57 2160 17200 (1928) 3 (1954) 1440 48 101 159 187 439 1500 2240 4430 6610
2026-04-05 15:00 9.64 2210 17200 (1928) 3 (1954) 1440 48 101 159 187 439 1500 2240 4430 6610
2026-04-05 14:30 9.72 2260 17200 (1928) 3 (1954) 1440 48 101 159 187 439 1500 2240 4430 6610
2026-04-05 14:00 9.77 2290 17200 (1928) 3 (1954) 1440 48 101 159 187 439 1500 2240 4430 6610
2026-04-05 13:30 9.83 2330 17200 (1928) 3 (1954) 1440 48 101 159 187 439 1500 2240 4430 6610
2026-04-05 13:00 9.90 2370 17200 (1928) 3 (1954) 1440 48 101 159 187 439 1500 2240 4430 6610
2026-04-05 12:30 9.98 2420 17200 (1928) 3 (1954) 1440 48 101 159 187 439 1500 2240 4430 6610
2026-04-05 12:00 10.05 2470 17200 (1928) 3 (1954) 1440 48 101 159 187 439 1500 2240 4430 6610
2026-04-05 11:30 10.13 2520 17200 (1928) 3 (1954) 1440 48 101 159 187 439 1500 2240 4430 6610
2026-04-05 11:00 10.23 2590 17200 (1928) 3 (1954) 1440 48 101 159 187 439 1500 2240 4430 6610
2026-04-05 10:30 10.31 2640 17200 (1928) 3 (1954) 1440 48 101 159 187 439 1500 2240 4430 6610
2026-04-05 10:00 10.38 2690 17200 (1928) 3 (1954) 1440 48 101 159 187 439 1500 2240 4430 6610
2026-04-05 09:30 10.46 2740 17200 (1928) 3 (1954) 1440 48 101 159 187 439 1500 2240 4430 6610
2026-04-05 09:00 10.56 2810 17200 (1928) 3 (1954) 1440 48 101 159 187 439 1500 2240 4430 6610
2026-04-05 08:30 10.66 2880 17200 (1928) 3 (1954) 1440 48 101 159 187 439 1500 2240 4430 6610
2026-04-05 08:00 10.75 2940 17200 (1928) 3 (1954) 1440 48 101 159 187 439 1500 2240 4430 6610
2026-04-05 07:30 10.85 3010 17200 (1928) 3 (1954) 1440 48 101 159 187 439 1500 2240 4430 6610
2026-04-05 07:00 10.95 3080 17200 (1928) 3 (1954) 1440 48 101 159 187 439 1500 2240 4430 6610
2026-04-05 06:30 11.03 3140 17200 (1928) 3 (1954) 1440 48 101 159 187 439 1500 2240 4430 6610
2026-04-05 06:00 11.12 3200 17200 (1928) 3 (1954) 1440 48 101 159 187 439 1500 2240 4430 6610
2026-04-05 05:00 3320 17200 (1928) 3 (1954) 1440 48 101 159 187 439 1500 2240 4430 6610
2026-04-05 04:30 11.36 17200 (1928) 3 (1954) 1440 48 101 159 187 439 1500 2240 4430 6610
2026-04-05 04:00 11.45 17200 (1928) 3 (1954) 1440 48 101 159 187 439 1500 2240 4430 6610
2026-04-05 03:30 3470 17200 (1928) 3 (1954) 1440 48 101 159 187 439 1500 2240 4430 6610
2026-04-05 03:00 11.54 3510 17200 (1928) 3 (1954) 1440 48 101 159 187 439 1500 2240 4430 6610
2026-04-05 02:30 11.59 3540 17200 (1928) 3 (1954) 1440 48 101 159 187 439 1500 2240 4430 6610
2026-04-05 02:00 11.63 3570 17200 (1928) 3 (1954) 1440 48 101 159 187 439 1500 2240 4430 6610
2026-04-05 01:00 11.65 3590 17200 (1928) 3 (1954) 1440 48 101 159 187 439 1500 2240 4430 6610
2026-04-05 00:30 11.64 3580 17200 (1928) 3 (1954) 1440 48 101 159 187 439 1500 2240 4430 6610
2026-04-05 00:00 11.61 3560 17200 (1928) 3 (1954) 1440 48 101 159 187 439 1500 2240 4430 6610
2026-04-04 23:30 11.58 3530 17200 (1928) 3 (1954) 1440 48 101 159 187 439 1500 2240 4430 6610
2026-04-04 23:00 11.51 3480 17200 (1928) 3 (1954) 1440 48 101 159 187 439 1500 2240 4430 6610

A total of 1489 rows are displayed for years 1922 through 2025.